<?xml version="1.0" encoding="UTF-8"?>
<gpx creator="Garmin Connect" version="1.1"
  xsi:schemaLocation="http://www.topografix.com/GPX/1/1 http://www.topografix.com/GPX/11.xsd"
  xmlns:ns3="http://www.garmin.com/xmlschemas/TrackPointExtension/v1"
  xmlns="http://www.topografix.com/GPX/1/1"
  xmlns:xsi="http://www.w3.org/2001/XMLSchema-instance" xmlns:ns2="http://www.garmin.com/xmlschemas/GpxExtensions/v3">
  <metadata>
    <name>S - Dag 3</name>
    <link href="connect.garmin.com">
      <text>Garmin Connect</text>
    </link>
    <time>2025-01-27T11:21:10.000Z</time>
  </metadata>
  <wpt lat="58.80757418910419" lon="16.31880539779357">
    <ele>0.0</ele>
    <name>Watermeer</name>
    <type>WATER</type>
  </wpt>
  <wpt lat="58.79491141726498" lon="16.31968437608665">
    <ele>0.0</ele>
    <name>Toilet</name>
    <type>TOILET</type>
  </wpt>
  <wpt lat="58.79489651703388" lon="16.31963914683153">
    <ele>0.0</ele>
    <name>Watermeer</name>
    <type>WATER</type>
  </wpt>
  <wpt lat="58.79485391131084" lon="16.31962971489054">
    <ele>0.0</ele>
    <name>Rustplaats</name>
    <type>REST AREA</type>
  </wpt>
  <wpt lat="58.79192193970084" lon="16.32175692357123">
    <ele>0.0</ele>
    <name>Info</name>
    <type>INFO</type>
  </wpt>
  <wpt lat="58.7808575547441" lon="16.35869834179425">
    <ele>0.0</ele>
    <name>Waterbron</name>
    <type>WATER</type>
  </wpt>
  <wpt lat="58.77654092117418" lon="16.36559222003756">
    <ele>0.0</ele>
    <name>Etappe 31</name>
    <type>TRANSITION</type>
  </wpt>
  <wpt lat="58.77532936186407" lon="16.36575803839659">
    <ele>0.0</ele>
    <name>Waterbron</name>
    <type>WATER</type>
  </wpt>
  <wpt lat="58.7510201401886" lon="16.37288728360916">
    <ele>0.0</ele>
    <name>Toilet</name>
    <type>TOILET</type>
  </wpt>
  <wpt lat="58.75082665984069" lon="16.37290367185666">
    <ele>0.0</ele>
    <name>Watermeer</name>
    <type>WATER</type>
  </wpt>
  <wpt lat="58.75080216011608" lon="16.3729465606036">
    <ele>0.0</ele>
    <name>Rustplaats</name>
    <type>REST AREA</type>
  </wpt>
  <wpt lat="58.74534025601636" lon="16.37615272077053">
    <ele>0.0</ele>
    <name>Waterbron</name>
    <type>WATER</type>
  </wpt>
  <wpt lat="58.73053016721475" lon="16.41173433216099">
    <ele>0.0</ele>
    <name>Snelweg restaur</name>
    <type>FOOD</type>
  </wpt>
  <wpt lat="58.7293459320801" lon="16.41163643953597">
    <ele>0.0</ele>
    <name>Etappe 32</name>
    <type>TRANSITION</type>
  </wpt>
  <wpt lat="58.72760126801353" lon="16.41246321901795">
    <ele>0.0</ele>
    <name>Watermeer</name>
    <type>WATER</type>
  </wpt>
  <wpt lat="58.71956229829824" lon="16.41431440760589">
    <ele>0.0</ele>
    <name>Kampeerplek 1</name>
    <type>CAMPSITE</type>
  </wpt>
  <wpt lat="58.72068048869414" lon="16.41294206492202">
    <ele>0.0</ele>
    <name>Watermeer</name>
    <type>WATER</type>
  </wpt>
  <wpt lat="58.72081954955947" lon="16.41065749570215">
    <ele>0.0</ele>
    <name>Kampeer plek 2</name>
    <type>CAMPSITE</type>
  </wpt>
  <trk>
    <name>S - Dag 3</name>
    <trkseg>
      <trkpt lat="58.81046857684851" lon="16.31123243831098">
        <ele>79.58</ele>
        <time>2025-01-27T11:21:10.000Z</time>
      </trkpt>
      <trkpt lat="58.81039598956704" lon="16.311344923451543">
        <ele>79.73</ele>
        <time>2025-01-27T11:21:10.012Z</time>
      </trkpt>
      <trkpt lat="58.8103239890188" lon="16.31151096895337">
        <ele>79.96</ele>
        <time>2025-01-27T11:21:10.039Z</time>
      </trkpt>
      <trkpt lat="58.81017210893333" lon="16.311793103814125">
        <ele>80.17</ele>
        <time>2025-01-27T11:21:10.095Z</time>
      </trkpt>
      <trkpt lat="58.81002098321915" lon="16.312073981389403">
        <ele>80.26</ele>
        <time>2025-01-27T11:21:10.179Z</time>
      </trkpt>
      <trkpt lat="58.809931967407465" lon="16.31228294223547">
        <ele>80.44</ele>
        <time>2025-01-27T11:21:10.281Z</time>
      </trkpt>
      <trkpt lat="58.80984898656607" lon="16.31254093721509">
        <ele>80.54</ele>
        <time>2025-01-27T11:21:10.405Z</time>
      </trkpt>
      <trkpt lat="58.80978997796774" lon="16.312771942466497">
        <ele>80.61</ele>
        <time>2025-01-27T11:21:10.546Z</time>
      </trkpt>
      <trkpt lat="58.809759970754385" lon="16.312958942726254">
        <ele>80.88</ele>
        <time>2025-01-27T11:21:10.701Z</time>
      </trkpt>
      <trkpt lat="58.80974899046123" lon="16.31316295824945">
        <ele>81.16</ele>
        <time>2025-01-27T11:21:10.870Z</time>
      </trkpt>
      <trkpt lat="58.80980699323118" lon="16.31350594572723">
        <ele>81.5</ele>
        <time>2025-01-27T11:21:11.064Z</time>
      </trkpt>
      <trkpt lat="58.809864996001124" lon="16.313768969848752">
        <ele>82.01</ele>
        <time>2025-01-27T11:21:11.278Z</time>
      </trkpt>
      <trkpt lat="58.80991796962917" lon="16.3140479195863">
        <ele>82.54</ele>
        <time>2025-01-27T11:21:11.513Z</time>
      </trkpt>
      <trkpt lat="58.80995711311698" lon="16.314408592879772">
        <ele>83.1</ele>
        <time>2025-01-27T11:21:11.773Z</time>
      </trkpt>
      <trkpt lat="58.809995921328664" lon="16.314766919240355">
        <ele>83.61</ele>
        <time>2025-01-27T11:21:12.059Z</time>
      </trkpt>
      <trkpt lat="58.81000991910696" lon="16.315195988863707">
        <ele>84.27</ele>
        <time>2025-01-27T11:21:12.374Z</time>
      </trkpt>
      <trkpt lat="58.81000698544085" lon="16.315415930002928">
        <ele>84.85</ele>
        <time>2025-01-27T11:21:12.705Z</time>
      </trkpt>
      <trkpt lat="58.80997094325721" lon="16.31559295579791">
        <ele>85.44</ele>
        <time>2025-01-27T11:21:13.049Z</time>
      </trkpt>
      <trkpt lat="58.80985192023218" lon="16.315989922732115">
        <ele>86.08</ele>
        <time>2025-01-27T11:21:13.425Z</time>
      </trkpt>
      <trkpt lat="58.809781931340694" lon="16.31610793992877">
        <ele>86.55</ele>
        <time>2025-01-27T11:21:13.813Z</time>
      </trkpt>
      <trkpt lat="58.80972099490464" lon="16.31618798710406">
        <ele>86.92</ele>
        <time>2025-01-27T11:21:14.211Z</time>
      </trkpt>
      <trkpt lat="58.80962694995105" lon="16.316263927146792">
        <ele>87.2</ele>
        <time>2025-01-27T11:21:14.623Z</time>
      </trkpt>
      <trkpt lat="58.80953198298812" lon="16.316289994865656">
        <ele>87.36</ele>
        <time>2025-01-27T11:21:15.047Z</time>
      </trkpt>
      <trkpt lat="58.80942394025624" lon="16.31627993658185">
        <ele>87.36</ele>
        <time>2025-01-27T11:21:15.486Z</time>
      </trkpt>
      <trkpt lat="58.809334924444556" lon="16.316252946853638">
        <ele>87.24</ele>
        <time>2025-01-27T11:21:15.937Z</time>
      </trkpt>
      <trkpt lat="58.80917097441852" lon="16.316177928820252">
        <ele>86.95</ele>
        <time>2025-01-27T11:21:16.410Z</time>
      </trkpt>
      <trkpt lat="58.80893795751035" lon="16.316139958798885">
        <ele>86.49</ele>
        <time>2025-01-27T11:21:16.915Z</time>
      </trkpt>
      <trkpt lat="58.80893141962588" lon="16.316139958798885">
        <ele>86.13</ele>
        <time>2025-01-27T11:21:17.421Z</time>
      </trkpt>
      <trkpt lat="58.80893795751035" lon="16.316139958798885">
        <ele>86.49</ele>
        <time>2025-01-27T11:21:17.927Z</time>
      </trkpt>
      <trkpt lat="58.80887391977012" lon="16.316139958798885">
        <ele>85.31</ele>
        <time>2025-01-27T11:21:18.442Z</time>
      </trkpt>
      <trkpt lat="58.808792950585485" lon="16.31623199209571">
        <ele>84.89</ele>
        <time>2025-01-27T11:21:18.970Z</time>
      </trkpt>
      <trkpt lat="58.80856798030436" lon="16.316563999280334">
        <ele>84.49</ele>
        <time>2025-01-27T11:21:19.535Z</time>
      </trkpt>
      <trkpt lat="58.80847997032106" lon="16.316700959578156">
        <ele>84.12</ele>
        <time>2025-01-27T11:21:20.116Z</time>
      </trkpt>
      <trkpt lat="58.80842397920787" lon="16.316788969561458">
        <ele>83.79</ele>
        <time>2025-01-27T11:21:20.706Z</time>
      </trkpt>
      <trkpt lat="58.808300932869315" lon="16.316998936235905">
        <ele>83.5</ele>
        <time>2025-01-27T11:21:21.318Z</time>
      </trkpt>
      <trkpt lat="58.808252988383174" lon="16.31716297008097">
        <ele>83.33</ele>
        <time>2025-01-27T11:21:21.943Z</time>
      </trkpt>
      <trkpt lat="58.80825315602124" lon="16.317163137719035">
        <ele>83.16</ele>
        <time>2025-01-27T11:21:22.568Z</time>
      </trkpt>
      <trkpt lat="58.808236978948116" lon="16.317218961194158">
        <ele>83.04</ele>
        <time>2025-01-27T11:21:23.198Z</time>
      </trkpt>
      <trkpt lat="58.80808996036649" lon="16.317453989759088">
        <ele>82.9</ele>
        <time>2025-01-27T11:21:23.853Z</time>
      </trkpt>
      <trkpt lat="58.80802298896015" lon="16.317534958943725">
        <ele>82.84</ele>
        <time>2025-01-27T11:21:24.519Z</time>
      </trkpt>
      <trkpt lat="58.807934978976846" lon="16.31769597530365">
        <ele>82.79</ele>
        <time>2025-01-27T11:21:25.201Z</time>
      </trkpt>
      <trkpt lat="58.80785996094346" lon="16.317856991663575">
        <ele>82.8</ele>
        <time>2025-01-27T11:21:25.898Z</time>
      </trkpt>
      <trkpt lat="58.80778175778687" lon="16.318195955827832">
        <ele>82.89</ele>
        <time>2025-01-27T11:21:26.621Z</time>
      </trkpt>
      <trkpt lat="58.80770397372544" lon="16.31853299215436">
        <ele>83.04</ele>
        <time>2025-01-27T11:21:27.369Z</time>
      </trkpt>
      <trkpt lat="58.80757413804531" lon="16.318805320188403">
        <ele>83.17</ele>
        <time>2025-01-27T11:21:28.143Z</time>
      </trkpt>
      <trkpt lat="58.80754295736551" lon="16.318870950490236">
        <ele>83.3</ele>
        <time>2025-01-27T11:21:28.923Z</time>
      </trkpt>
      <trkpt lat="58.807461988180876" lon="16.319063985720277">
        <ele>83.44</ele>
        <time>2025-01-27T11:21:29.720Z</time>
      </trkpt>
      <trkpt lat="58.807375989854336" lon="16.319229947403073">
        <ele>83.53</ele>
        <time>2025-01-27T11:21:30.534Z</time>
      </trkpt>
      <trkpt lat="58.8073069229722" lon="16.319390963763">
        <ele>83.68</ele>
        <time>2025-01-27T11:21:31.362Z</time>
      </trkpt>
      <trkpt lat="58.80721497349441" lon="16.319578969851136">
        <ele>83.75</ele>
        <time>2025-01-27T11:21:32.208Z</time>
      </trkpt>
      <trkpt lat="58.80717599764466" lon="16.319819949567318">
        <ele>83.95</ele>
        <time>2025-01-27T11:21:33.072Z</time>
      </trkpt>
      <trkpt lat="58.80715697072446" lon="16.320249941200018">
        <ele>84.26</ele>
        <time>2025-01-27T11:21:33.965Z</time>
      </trkpt>
      <trkpt lat="58.80711195990443" lon="16.320420932024717">
        <ele>84.43</ele>
        <time>2025-01-27T11:21:34.872Z</time>
      </trkpt>
      <trkpt lat="58.807011963799596" lon="16.320946980267763">
        <ele>84.61</ele>
        <time>2025-01-27T11:21:35.818Z</time>
      </trkpt>
      <trkpt lat="58.80696192383766" lon="16.321466993540525">
        <ele>84.77</ele>
        <time>2025-01-27T11:21:36.800Z</time>
      </trkpt>
      <trkpt lat="58.806922947987914" lon="16.32167092524469">
        <ele>84.85</ele>
        <time>2025-01-27T11:21:37.797Z</time>
      </trkpt>
      <trkpt lat="58.80686796270311" lon="16.32182096131146">
        <ele>84.87</ele>
        <time>2025-01-27T11:21:38.807Z</time>
      </trkpt>
      <trkpt lat="58.80678196437657" lon="16.3220139965415">
        <ele>84.85</ele>
        <time>2025-01-27T11:21:39.835Z</time>
      </trkpt>
      <trkpt lat="58.80667593330145" lon="16.322201918810606">
        <ele>84.76</ele>
        <time>2025-01-27T11:21:40.882Z</time>
      </trkpt>
      <trkpt lat="58.80656495690346" lon="16.322340974584222">
        <ele>84.61</ele>
        <time>2025-01-27T11:21:41.947Z</time>
      </trkpt>
      <trkpt lat="58.80645699799061" lon="16.322459997609258">
        <ele>84.44</ele>
        <time>2025-01-27T11:21:43.028Z</time>
      </trkpt>
      <trkpt lat="58.80631064996123" lon="16.322653368115425">
        <ele>84.23</ele>
        <time>2025-01-27T11:21:44.133Z</time>
      </trkpt>
      <trkpt lat="58.80616497248411" lon="16.322845984250307">
        <ele>84.04</ele>
        <time>2025-01-27T11:21:45.262Z</time>
      </trkpt>
      <trkpt lat="58.80601795390248" lon="16.322952937334776">
        <ele>83.86</ele>
        <time>2025-01-27T11:21:46.412Z</time>
      </trkpt>
      <trkpt lat="58.80590597167611" lon="16.323059974238276">
        <ele>83.69</ele>
        <time>2025-01-27T11:21:47.578Z</time>
      </trkpt>
      <trkpt lat="58.80583992227912" lon="16.323054945096374">
        <ele>83.58</ele>
        <time>2025-01-27T11:21:48.753Z</time>
      </trkpt>
      <trkpt lat="58.805764988064766" lon="16.32298495620489">
        <ele>83.49</ele>
        <time>2025-01-27T11:21:49.939Z</time>
      </trkpt>
      <trkpt lat="58.80569198168814" lon="16.322861993685365">
        <ele>83.43</ele>
        <time>2025-01-27T11:21:51.138Z</time>
      </trkpt>
      <trkpt lat="58.80565392784774" lon="16.322710951790214">
        <ele>83.4</ele>
        <time>2025-01-27T11:21:52.349Z</time>
      </trkpt>
      <trkpt lat="58.805637918412685" lon="16.322438959032297">
        <ele>83.47</ele>
        <time>2025-01-27T11:21:53.579Z</time>
      </trkpt>
      <trkpt lat="58.80564797669649" lon="16.32223393768072">
        <ele>83.55</ele>
        <time>2025-01-27T11:21:54.823Z</time>
      </trkpt>
      <trkpt lat="58.80566691979766" lon="16.322003938257694">
        <ele>83.66</ele>
        <time>2025-01-27T11:21:56.083Z</time>
      </trkpt>
      <trkpt lat="58.80566499195993" lon="16.32182096131146">
        <ele>83.8</ele>
        <time>2025-01-27T11:21:57.356Z</time>
      </trkpt>
      <trkpt lat="58.8056199811399" lon="16.321718953549862">
        <ele>83.96</ele>
        <time>2025-01-27T11:21:58.638Z</time>
      </trkpt>
      <trkpt lat="58.805461982265115" lon="16.32156397216022">
        <ele>84.17</ele>
        <time>2025-01-27T11:21:59.944Z</time>
      </trkpt>
      <trkpt lat="58.805377995595336" lon="16.32145592942834">
        <ele>84.33</ele>
        <time>2025-01-27T11:22:01.264Z</time>
      </trkpt>
      <trkpt lat="58.80525595508516" lon="16.321380995213985">
        <ele>84.5</ele>
        <time>2025-01-27T11:22:02.601Z</time>
      </trkpt>
      <trkpt lat="58.805161993950605" lon="16.321364985778928">
        <ele>84.67</ele>
        <time>2025-01-27T11:22:03.950Z</time>
      </trkpt>
      <trkpt lat="58.80504791624844" lon="16.321385940536857">
        <ele>84.85</ele>
        <time>2025-01-27T11:22:05.315Z</time>
      </trkpt>
      <trkpt lat="58.80493392236531" lon="16.321461964398623">
        <ele>85.03</ele>
        <time>2025-01-27T11:22:06.696Z</time>
      </trkpt>
      <trkpt lat="58.80469495430589" lon="16.321664974093437">
        <ele>85.19</ele>
        <time>2025-01-27T11:22:08.112Z</time>
      </trkpt>
      <trkpt lat="58.80458699539304" lon="16.321675954386592">
        <ele>85.32</ele>
        <time>2025-01-27T11:22:09.542Z</time>
      </trkpt>
      <trkpt lat="58.8044869992882" lon="16.321664974093437">
        <ele>85.46</ele>
        <time>2025-01-27T11:22:10.985Z</time>
      </trkpt>
      <trkpt lat="58.80437795072794" lon="16.321707973256707">
        <ele>85.59</ele>
        <time>2025-01-27T11:22:12.443Z</time>
      </trkpt>
      <trkpt lat="58.80413596518338" lon="16.321901930496097">
        <ele>85.73</ele>
        <time>2025-01-27T11:22:13.936Z</time>
      </trkpt>
      <trkpt lat="58.803983917459846" lon="16.321943923830986">
        <ele>85.85</ele>
        <time>2025-01-27T11:22:15.450Z</time>
      </trkpt>
      <trkpt lat="58.803819715976715" lon="16.322027575224638">
        <ele>85.99</ele>
        <time>2025-01-27T11:22:16.987Z</time>
      </trkpt>
      <trkpt lat="58.80365593358874" lon="16.322110975161195">
        <ele>86.15</ele>
        <time>2025-01-27T11:22:18.546Z</time>
      </trkpt>
      <trkpt lat="58.803571946918964" lon="16.322072921320796">
        <ele>86.34</ele>
        <time>2025-01-27T11:22:20.117Z</time>
      </trkpt>
      <trkpt lat="58.803488966077566" lon="16.3220139965415">
        <ele>86.56</ele>
        <time>2025-01-27T11:22:21.700Z</time>
      </trkpt>
      <trkpt lat="58.80341394804418" lon="16.321997987106442">
        <ele>86.79</ele>
        <time>2025-01-27T11:22:23.293Z</time>
      </trkpt>
      <trkpt lat="58.80321395583451" lon="16.322002932429314">
        <ele>87.04</ele>
        <time>2025-01-27T11:22:24.912Z</time>
      </trkpt>
      <trkpt lat="58.80301899276674" lon="16.321933949366212">
        <ele>87.37</ele>
        <time>2025-01-27T11:22:26.558Z</time>
      </trkpt>
      <trkpt lat="58.80293894559145" lon="16.321938978508115">
        <ele>87.69</ele>
        <time>2025-01-27T11:22:28.215Z</time>
      </trkpt>
      <trkpt lat="58.80284992977977" lon="16.32197099737823">
        <ele>88.01</ele>
        <time>2025-01-27T11:22:29.884Z</time>
      </trkpt>
      <trkpt lat="58.80274398252368" lon="16.321959933266044">
        <ele>88.36</ele>
        <time>2025-01-27T11:22:31.567Z</time>
      </trkpt>
      <trkpt lat="58.80263292230666" lon="16.32192892022431">
        <ele>88.72</ele>
        <time>2025-01-27T11:22:33.265Z</time>
      </trkpt>
      <trkpt lat="58.80253292620182" lon="16.32182096131146">
        <ele>89.11</ele>
        <time>2025-01-27T11:22:34.978Z</time>
      </trkpt>
      <trkpt lat="58.8022799603641" lon="16.32149892859161">
        <ele>89.56</ele>
        <time>2025-01-27T11:22:36.732Z</time>
      </trkpt>
      <trkpt lat="58.80219094455242" lon="16.32141393609345">
        <ele>89.94</ele>
        <time>2025-01-27T11:22:38.499Z</time>
      </trkpt>
      <trkpt lat="58.802029928192496" lon="16.3211989402771">
        <ele>90.34</ele>
        <time>2025-01-27T11:22:40.292Z</time>
      </trkpt>
      <trkpt lat="58.801979972049594" lon="16.321171950548887">
        <ele>90.7</ele>
        <time>2025-01-27T11:22:42.092Z</time>
      </trkpt>
      <trkpt lat="58.80192993208766" lon="16.321166921406984">
        <ele>91.07</ele>
        <time>2025-01-27T11:22:43.899Z</time>
      </trkpt>
      <trkpt lat="58.801812920719385" lon="16.321316957473755">
        <ele>91.43</ele>
        <time>2025-01-27T11:22:45.725Z</time>
      </trkpt>
      <trkpt lat="58.80171292461455" lon="16.32143497467041">
        <ele>91.82</ele>
        <time>2025-01-27T11:22:47.566Z</time>
      </trkpt>
      <trkpt lat="58.8016049657017" lon="16.321536982432008">
        <ele>92.21</ele>
        <time>2025-01-27T11:22:49.423Z</time>
      </trkpt>
      <trkpt lat="58.80152491852641" lon="16.321595991030335">
        <ele>92.57</ele>
        <time>2025-01-27T11:22:51.292Z</time>
      </trkpt>
      <trkpt lat="58.80141595378518" lon="16.32161191664636">
        <ele>92.93</ele>
        <time>2025-01-27T11:22:53.175Z</time>
      </trkpt>
      <trkpt lat="58.801337918266654" lon="16.321600936353207">
        <ele>93.29</ele>
        <time>2025-01-27T11:22:55.069Z</time>
      </trkpt>
      <trkpt lat="58.80117991939187" lon="16.321487948298454">
        <ele>93.66</ele>
        <time>2025-01-27T11:22:56.985Z</time>
      </trkpt>
      <trkpt lat="58.80109098739922" lon="16.321407984942198">
        <ele>94.06</ele>
        <time>2025-01-27T11:22:58.915Z</time>
      </trkpt>
      <trkpt lat="58.80102694965899" lon="16.32131092250347">
        <ele>94.44</ele>
        <time>2025-01-27T11:23:00.855Z</time>
      </trkpt>
      <trkpt lat="58.80096894688904" lon="16.321252919733524">
        <ele>94.82</ele>
        <time>2025-01-27T11:23:02.804Z</time>
      </trkpt>
      <trkpt lat="58.800909938290715" lon="16.32121997885406">
        <ele>95.2</ele>
        <time>2025-01-27T11:23:04.761Z</time>
      </trkpt>
      <trkpt lat="58.8008329924196" lon="16.321214949712157">
        <ele>95.59</ele>
        <time>2025-01-27T11:23:06.729Z</time>
      </trkpt>
      <trkpt lat="58.80078798159957" lon="16.321268929168582">
        <ele>95.98</ele>
        <time>2025-01-27T11:23:08.704Z</time>
      </trkpt>
      <trkpt lat="58.80074892193079" lon="16.32134897634387">
        <ele>96.35</ele>
        <time>2025-01-27T11:23:10.686Z</time>
      </trkpt>
      <trkpt lat="58.80064398050308" lon="16.321767987683415">
        <ele>96.8</ele>
        <time>2025-01-27T11:23:12.701Z</time>
      </trkpt>
      <trkpt lat="58.800606932491064" lon="16.321959933266044">
        <ele>97.15</ele>
        <time>2025-01-27T11:23:14.730Z</time>
      </trkpt>
      <trkpt lat="58.800520934164524" lon="16.322260927408934">
        <ele>97.49</ele>
        <time>2025-01-27T11:23:16.783Z</time>
      </trkpt>
      <trkpt lat="58.80042697302997" lon="16.32253493182361">
        <ele>97.85</ele>
        <time>2025-01-27T11:23:18.858Z</time>
      </trkpt>
      <trkpt lat="58.8003599178046" lon="16.32263693958521">
        <ele>98.19</ele>
        <time>2025-01-27T11:23:20.945Z</time>
      </trkpt>
      <trkpt lat="58.80020694807172" lon="16.32278697565198">
        <ele>98.57</ele>
        <time>2025-01-27T11:23:23.055Z</time>
      </trkpt>
      <trkpt lat="58.80012396723032" lon="16.32278697565198">
        <ele>98.95</ele>
        <time>2025-01-27T11:23:25.176Z</time>
      </trkpt>
      <trkpt lat="58.80004299804568" lon="16.322737941518426">
        <ele>99.31</ele>
        <time>2025-01-27T11:23:27.308Z</time>
      </trkpt>
      <trkpt lat="58.79995699971914" lon="16.322496961802244">
        <ele>99.68</ele>
        <time>2025-01-27T11:23:29.461Z</time>
      </trkpt>
      <trkpt lat="58.79991794005036" lon="16.32229294627905">
        <ele>100.03</ele>
        <time>2025-01-27T11:23:31.629Z</time>
      </trkpt>
      <trkpt lat="58.7998519744724" lon="16.322094965726137">
        <ele>100.34</ele>
        <time>2025-01-27T11:23:33.813Z</time>
      </trkpt>
      <trkpt lat="58.79973194561899" lon="16.321868989616632">
        <ele>100.62</ele>
        <time>2025-01-27T11:23:36.019Z</time>
      </trkpt>
      <trkpt lat="58.799617951735854" lon="16.321772933006287">
        <ele>100.89</ele>
        <time>2025-01-27T11:23:38.242Z</time>
      </trkpt>
      <trkpt lat="58.79949892871082" lon="16.321825990453362">
        <ele>101.12</ele>
        <time>2025-01-27T11:23:40.481Z</time>
      </trkpt>
      <trkpt lat="58.799339924007654" lon="16.32201894186437">
        <ele>101.34</ele>
        <time>2025-01-27T11:23:42.745Z</time>
      </trkpt>
      <trkpt lat="58.79919592291117" lon="16.32220694795251">
        <ele>101.54</ele>
        <time>2025-01-27T11:23:45.033Z</time>
      </trkpt>
      <trkpt lat="58.79901194013655" lon="16.322544990107417">
        <ele>101.72</ele>
        <time>2025-01-27T11:23:47.355Z</time>
      </trkpt>
      <trkpt lat="58.798906998708844" lon="16.32267993874848">
        <ele>101.85</ele>
        <time>2025-01-27T11:23:49.694Z</time>
      </trkpt>
      <trkpt lat="58.79879292100668" lon="16.32280793040991">
        <ele>101.93</ele>
        <time>2025-01-27T11:23:52.050Z</time>
      </trkpt>
      <trkpt lat="58.79868999123573" lon="16.322839949280024">
        <ele>101.99</ele>
        <time>2025-01-27T11:23:54.420Z</time>
      </trkpt>
      <trkpt lat="58.79853693768382" lon="16.32278697565198">
        <ele>102.01</ele>
        <time>2025-01-27T11:23:56.811Z</time>
      </trkpt>
      <trkpt lat="58.79842897877097" lon="16.322716986760497">
        <ele>102.0</ele>
        <time>2025-01-27T11:23:59.217Z</time>
      </trkpt>
      <trkpt lat="58.798331916332245" lon="16.32263693958521">
        <ele>101.96</ele>
        <time>2025-01-27T11:24:01.637Z</time>
      </trkpt>
      <trkpt lat="58.79821197129786" lon="16.322512971237302">
        <ele>101.89</ele>
        <time>2025-01-27T11:24:04.075Z</time>
      </trkpt>
      <trkpt lat="58.79811993800104" lon="16.3224439881742">
        <ele>101.8</ele>
        <time>2025-01-27T11:24:06.527Z</time>
      </trkpt>
      <trkpt lat="58.798028994351625" lon="16.322351954877377">
        <ele>101.68</ele>
        <time>2025-01-27T11:24:08.992Z</time>
      </trkpt>
      <trkpt lat="58.798005944117904" lon="16.32214299403131">
        <ele>101.54</ele>
        <time>2025-01-27T11:24:11.472Z</time>
      </trkpt>
      <trkpt lat="58.7979924492538" lon="16.32182540372014">
        <ele>101.31</ele>
        <time>2025-01-27T11:24:13.974Z</time>
      </trkpt>
      <trkpt lat="58.79797895438969" lon="16.321509992703795">
        <ele>101.07</ele>
        <time>2025-01-27T11:24:16.498Z</time>
      </trkpt>
      <trkpt lat="58.79789195023477" lon="16.32150094024837">
        <ele>100.89</ele>
        <time>2025-01-27T11:24:19.034Z</time>
      </trkpt>
      <trkpt lat="58.79775297828019" lon="16.321450984105468">
        <ele>100.68</ele>
        <time>2025-01-27T11:24:21.589Z</time>
      </trkpt>
      <trkpt lat="58.79766999743879" lon="16.32106499746442">
        <ele>100.45</ele>
        <time>2025-01-27T11:24:24.173Z</time>
      </trkpt>
      <trkpt lat="58.79765599966049" lon="16.320785963907838">
        <ele>100.19</ele>
        <time>2025-01-27T11:24:26.776Z</time>
      </trkpt>
      <trkpt lat="58.7975899502635" lon="16.32055495865643">
        <ele>100.01</ele>
        <time>2025-01-27T11:24:29.398Z</time>
      </trkpt>
      <trkpt lat="58.79752297885716" lon="16.320259999483824">
        <ele>99.85</ele>
        <time>2025-01-27T11:24:32.042Z</time>
      </trkpt>
      <trkpt lat="58.79744494333863" lon="16.320152962580323">
        <ele>99.73</ele>
        <time>2025-01-27T11:24:34.699Z</time>
      </trkpt>
      <trkpt lat="58.79739498719573" lon="16.320179952308536">
        <ele>99.57</ele>
        <time>2025-01-27T11:24:37.363Z</time>
      </trkpt>
      <trkpt lat="58.79730898886919" lon="16.320308949798346">
        <ele>99.41</ele>
        <time>2025-01-27T11:24:40.041Z</time>
      </trkpt>
      <trkpt lat="58.79704797640443" lon="16.32064095698297">
        <ele>99.27</ele>
        <time>2025-01-27T11:24:42.761Z</time>
      </trkpt>
      <trkpt lat="58.796901712194085" lon="16.32078319787979">
        <ele>99.07</ele>
        <time>2025-01-27T11:24:45.503Z</time>
      </trkpt>
      <trkpt lat="58.79675595089793" lon="16.320924935862422">
        <ele>98.9</ele>
        <time>2025-01-27T11:24:48.267Z</time>
      </trkpt>
      <trkpt lat="58.79664497449994" lon="16.320999953895807">
        <ele>98.69</ele>
        <time>2025-01-27T11:24:51.046Z</time>
      </trkpt>
      <trkpt lat="58.796524945646524" lon="16.321031972765923">
        <ele>98.48</ele>
        <time>2025-01-27T11:24:53.842Z</time>
      </trkpt>
      <trkpt lat="58.796457974240184" lon="16.321010934188962">
        <ele>98.31</ele>
        <time>2025-01-27T11:24:56.647Z</time>
      </trkpt>
      <trkpt lat="58.79639393649995" lon="16.320914961397648">
        <ele>98.14</ele>
        <time>2025-01-27T11:24:59.463Z</time>
      </trkpt>
      <trkpt lat="58.796291928738356" lon="16.320801973342896">
        <ele>97.96</ele>
        <time>2025-01-27T11:25:02.294Z</time>
      </trkpt>
      <trkpt lat="58.79621397703886" lon="16.320688985288143">
        <ele>97.82</ele>
        <time>2025-01-27T11:25:05.138Z</time>
      </trkpt>
      <trkpt lat="58.79612194374204" lon="16.320603992789984">
        <ele>97.72</ele>
        <time>2025-01-27T11:25:07.996Z</time>
      </trkpt>
      <trkpt lat="58.79601398482919" lon="16.320565938949585">
        <ele>97.63</ele>
        <time>2025-01-27T11:25:10.869Z</time>
      </trkpt>
      <trkpt lat="58.79593293182552" lon="16.32061899639666">
        <ele>97.58</ele>
        <time>2025-01-27T11:25:13.753Z</time>
      </trkpt>
      <trkpt lat="58.79588892683387" lon="16.320710945874453">
        <ele>97.59</ele>
        <time>2025-01-27T11:25:16.646Z</time>
      </trkpt>
      <trkpt lat="58.795815920457244" lon="16.32089794613421">
        <ele>97.69</ele>
        <time>2025-01-27T11:25:19.555Z</time>
      </trkpt>
      <trkpt lat="58.79576596431434" lon="16.32096298970282">
        <ele>97.79</ele>
        <time>2025-01-27T11:25:22.472Z</time>
      </trkpt>
      <trkpt lat="58.795687928795815" lon="16.320999953895807">
        <ele>97.93</ele>
        <time>2025-01-27T11:25:25.400Z</time>
      </trkpt>
      <trkpt lat="58.79549698904157" lon="16.320994924753904">
        <ele>98.2</ele>
        <time>2025-01-27T11:25:28.353Z</time>
      </trkpt>
      <trkpt lat="58.79542197100818" lon="16.32096298970282">
        <ele>98.36</ele>
        <time>2025-01-27T11:25:31.317Z</time>
      </trkpt>
      <trkpt lat="58.795386934652925" lon="16.320913955569267">
        <ele>98.47</ele>
        <time>2025-01-27T11:25:34.286Z</time>
      </trkpt>
      <trkpt lat="58.795326920226216" lon="16.320828963071108">
        <ele>98.57</ele>
        <time>2025-01-27T11:25:37.265Z</time>
      </trkpt>
      <trkpt lat="58.795257937163115" lon="16.320694936439395">
        <ele>98.63</ele>
        <time>2025-01-27T11:25:40.257Z</time>
      </trkpt>
      <trkpt lat="58.79525198601186" lon="16.320517994463444">
        <ele>98.61</ele>
        <time>2025-01-27T11:25:43.262Z</time>
      </trkpt>
      <trkpt lat="58.795235976576805" lon="16.320388996973634">
        <ele>98.63</ele>
        <time>2025-01-27T11:25:46.276Z</time>
      </trkpt>
      <trkpt lat="58.79516892135143" lon="16.320249941200018">
        <ele>98.66</ele>
        <time>2025-01-27T11:25:49.303Z</time>
      </trkpt>
      <trkpt lat="58.79516598768532" lon="16.320071993395686">
        <ele>98.6</ele>
        <time>2025-01-27T11:25:52.342Z</time>
      </trkpt>
      <trkpt lat="58.79501595161855" lon="16.319852974265814">
        <ele>98.58</ele>
        <time>2025-01-27T11:25:55.407Z</time>
      </trkpt>
      <trkpt lat="58.79498695023358" lon="16.319794971495867">
        <ele>98.55</ele>
        <time>2025-01-27T11:25:58.477Z</time>
      </trkpt>
      <trkpt lat="58.794934982433915" lon="16.31975599564612">
        <ele>98.53</ele>
        <time>2025-01-27T11:26:01.555Z</time>
      </trkpt>
      <trkpt lat="58.79491134546697" lon="16.319684330374002">
        <ele>98.49</ele>
        <time>2025-01-27T11:26:04.639Z</time>
      </trkpt>
      <trkpt lat="58.79489650949836" lon="16.319639068096876">
        <ele>98.46</ele>
        <time>2025-01-27T11:26:07.726Z</time>
      </trkpt>
      <trkpt lat="58.7948839366436" lon="16.319600930437446">
        <ele>98.44</ele>
        <time>2025-01-27T11:26:10.816Z</time>
      </trkpt>
      <trkpt lat="58.794853845611215" lon="16.319629680365324">
        <ele>98.45</ele>
        <time>2025-01-27T11:26:13.911Z</time>
      </trkpt>
      <trkpt lat="58.79473993554711" lon="16.31973898038268">
        <ele>98.5</ele>
        <time>2025-01-27T11:26:17.023Z</time>
      </trkpt>
      <trkpt lat="58.79462099634111" lon="16.3198259845376">
        <ele>98.54</ele>
        <time>2025-01-27T11:26:20.152Z</time>
      </trkpt>
      <trkpt lat="58.79445495083928" lon="16.319916928187013">
        <ele>98.59</ele>
        <time>2025-01-27T11:26:23.304Z</time>
      </trkpt>
      <trkpt lat="58.79429896362126" lon="16.319942995905876">
        <ele>98.65</ele>
        <time>2025-01-27T11:26:26.477Z</time>
      </trkpt>
      <trkpt lat="58.793987995013595" lon="16.319964956492186">
        <ele>98.67</ele>
        <time>2025-01-27T11:26:29.692Z</time>
      </trkpt>
      <trkpt lat="58.79383192397654" lon="16.3199969753623">
        <ele>98.78</ele>
        <time>2025-01-27T11:26:32.928Z</time>
      </trkpt>
      <trkpt lat="58.79364970140159" lon="16.31995439529419">
        <ele>98.87</ele>
        <time>2025-01-27T11:26:36.188Z</time>
      </trkpt>
      <trkpt lat="58.79346798174083" lon="16.31991198286414">
        <ele>98.96</ele>
        <time>2025-01-27T11:26:39.473Z</time>
      </trkpt>
      <trkpt lat="58.79335893318057" lon="16.319873929023743">
        <ele>99.1</ele>
        <time>2025-01-27T11:26:42.772Z</time>
      </trkpt>
      <trkpt lat="58.793236976489425" lon="16.319894967600703">
        <ele>99.29</ele>
        <time>2025-01-27T11:26:46.088Z</time>
      </trkpt>
      <trkpt lat="58.79311493597925" lon="16.31997099146247">
        <ele>99.53</ele>
        <time>2025-01-27T11:26:49.421Z</time>
      </trkpt>
      <trkpt lat="58.792952159419656" lon="16.32011574693024">
        <ele>99.79</ele>
        <time>2025-01-27T11:26:52.778Z</time>
      </trkpt>
      <trkpt lat="58.79278996959329" lon="16.320259999483824">
        <ele>100.06</ele>
        <time>2025-01-27T11:26:56.159Z</time>
      </trkpt>
      <trkpt lat="58.792614955455065" lon="16.320479940623045">
        <ele>100.46</ele>
        <time>2025-01-27T11:26:59.568Z</time>
      </trkpt>
      <trkpt lat="58.79247263073921" lon="16.320735588669777">
        <ele>100.89</ele>
        <time>2025-01-27T11:27:03.003Z</time>
      </trkpt>
      <trkpt lat="58.79233097657561" lon="16.320989979431033">
        <ele>101.35</ele>
        <time>2025-01-27T11:27:06.464Z</time>
      </trkpt>
      <trkpt lat="58.79226199351251" lon="16.321186954155564">
        <ele>101.8</ele>
        <time>2025-01-27T11:27:09.941Z</time>
      </trkpt>
      <trkpt lat="58.792205918580294" lon="16.32134897634387">
        <ele>102.21</ele>
        <time>2025-01-27T11:27:13.432Z</time>
      </trkpt>
      <trkpt lat="58.79205294884741" lon="16.32160697132349">
        <ele>102.62</ele>
        <time>2025-01-27T11:27:16.950Z</time>
      </trkpt>
      <trkpt lat="58.79192193970084" lon="16.32175692357123">
        <ele>102.95</ele>
        <time>2025-01-27T11:27:20.488Z</time>
      </trkpt>
      <trkpt lat="58.791802916675806" lon="16.321917939931154">
        <ele>103.33</ele>
        <time>2025-01-27T11:27:24.045Z</time>
      </trkpt>
      <trkpt lat="58.79159999080002" lon="16.32227199152112">
        <ele>103.81</ele>
        <time>2025-01-27T11:27:27.639Z</time>
      </trkpt>
      <trkpt lat="58.79147996194661" lon="16.322437953203917">
        <ele>104.16</ele>
        <time>2025-01-27T11:27:31.253Z</time>
      </trkpt>
      <trkpt lat="58.79139396362007" lon="16.322501990944147">
        <ele>104.44</ele>
        <time>2025-01-27T11:27:34.879Z</time>
      </trkpt>
      <trkpt lat="58.791263960301876" lon="16.322673987597227">
        <ele>104.71</ele>
        <time>2025-01-27T11:27:38.526Z</time>
      </trkpt>
      <trkpt lat="58.79117192700505" lon="16.32280793040991">
        <ele>104.89</ele>
        <time>2025-01-27T11:27:42.189Z</time>
      </trkpt>
      <trkpt lat="58.791036140173674" lon="16.323039354756474">
        <ele>104.96</ele>
        <time>2025-01-27T11:27:45.876Z</time>
      </trkpt>
      <trkpt lat="58.791036140173674" lon="16.323039438575506">
        <ele>104.96</ele>
        <time>2025-01-27T11:27:49.563Z</time>
      </trkpt>
      <trkpt lat="58.791036140173674" lon="16.323039522394538">
        <ele>104.89</ele>
        <time>2025-01-27T11:27:53.250Z</time>
      </trkpt>
      <trkpt lat="58.7910364754498" lon="16.32303918711841">
        <ele>104.75</ele>
        <time>2025-01-27T11:27:56.937Z</time>
      </trkpt>
      <trkpt lat="58.79103655926883" lon="16.32303918711841">
        <ele>104.52</ele>
        <time>2025-01-27T11:28:00.624Z</time>
      </trkpt>
      <trkpt lat="58.79103655926883" lon="16.323039270937443">
        <ele>104.22</ele>
        <time>2025-01-27T11:28:04.311Z</time>
      </trkpt>
      <trkpt lat="58.79103655926883" lon="16.323039354756474">
        <ele>103.84</ele>
        <time>2025-01-27T11:28:07.998Z</time>
      </trkpt>
      <trkpt lat="58.791036643087864" lon="16.323039354756474">
        <ele>103.39</ele>
        <time>2025-01-27T11:28:11.685Z</time>
      </trkpt>
      <trkpt lat="58.791036643087864" lon="16.323039438575506">
        <ele>102.88</ele>
        <time>2025-01-27T11:28:15.372Z</time>
      </trkpt>
      <trkpt lat="58.79103697836399" lon="16.323038935661316">
        <ele>102.3</ele>
        <time>2025-01-27T11:28:19.059Z</time>
      </trkpt>
      <trkpt lat="58.79083556123078" lon="16.323331044986844">
        <ele>101.65</ele>
        <time>2025-01-27T11:28:22.780Z</time>
      </trkpt>
      <trkpt lat="58.790634982287884" lon="16.323621980845928">
        <ele>100.88</ele>
        <time>2025-01-27T11:28:26.534Z</time>
      </trkpt>
      <trkpt lat="58.79045393317938" lon="16.324044931679964">
        <ele>100.1</ele>
        <time>2025-01-27T11:28:30.326Z</time>
      </trkpt>
      <trkpt lat="58.79030456766486" lon="16.324338130652905">
        <ele>99.32</ele>
        <time>2025-01-27T11:28:34.147Z</time>
      </trkpt>
      <trkpt lat="58.79015595652163" lon="16.324629988521338">
        <ele>98.6</ele>
        <time>2025-01-27T11:28:37.996Z</time>
      </trkpt>
      <trkpt lat="58.789953952655196" lon="16.32506492547691">
        <ele>97.81</ele>
        <time>2025-01-27T11:28:41.886Z</time>
      </trkpt>
      <trkpt lat="58.7898381985724" lon="16.32530154660344">
        <ele>97.05</ele>
        <time>2025-01-27T11:28:45.798Z</time>
      </trkpt>
      <trkpt lat="58.78972294740379" lon="16.32553699426353">
        <ele>96.33</ele>
        <time>2025-01-27T11:28:49.733Z</time>
      </trkpt>
      <trkpt lat="58.78957257606089" lon="16.325816614553332">
        <ele>95.64</ele>
        <time>2025-01-27T11:28:53.696Z</time>
      </trkpt>
      <trkpt lat="58.78942295908928" lon="16.32609497755766">
        <ele>94.96</ele>
        <time>2025-01-27T11:28:57.686Z</time>
      </trkpt>
      <trkpt lat="58.789297146722674" lon="16.32634760811925">
        <ele>94.39</ele>
        <time>2025-01-27T11:29:01.701Z</time>
      </trkpt>
      <trkpt lat="58.78917192108929" lon="16.326598981395364">
        <ele>93.84</ele>
        <time>2025-01-27T11:29:05.740Z</time>
      </trkpt>
      <trkpt lat="58.78905516117811" lon="16.326870638877153">
        <ele>93.48</ele>
        <time>2025-01-27T11:29:09.803Z</time>
      </trkpt>
      <trkpt lat="58.788938988000154" lon="16.327140955254436">
        <ele>93.26</ele>
        <time>2025-01-27T11:29:13.891Z</time>
      </trkpt>
      <trkpt lat="58.78891099244356" lon="16.327220918610692">
        <ele>93.3</ele>
        <time>2025-01-27T11:29:17.985Z</time>
      </trkpt>
      <trkpt lat="58.78883899189532" lon="16.327369948849082">
        <ele>93.46</ele>
        <time>2025-01-27T11:29:22.094Z</time>
      </trkpt>
      <trkpt lat="58.788876961916685" lon="16.327769933268428">
        <ele>93.89</ele>
        <time>2025-01-27T11:29:26.231Z</time>
      </trkpt>
      <trkpt lat="58.78892909735441" lon="16.32815063931048">
        <ele>94.47</ele>
        <time>2025-01-27T11:29:30.395Z</time>
      </trkpt>
      <trkpt lat="58.788980981335044" lon="16.328528998419642">
        <ele>95.23</ele>
        <time>2025-01-27T11:29:34.586Z</time>
      </trkpt>
      <trkpt lat="58.789115929976106" lon="16.328818928450346">
        <ele>96.23</ele>
        <time>2025-01-27T11:29:38.804Z</time>
      </trkpt>
      <trkpt lat="58.789325980469584" lon="16.329089999198914">
        <ele>97.41</ele>
        <time>2025-01-27T11:29:43.056Z</time>
      </trkpt>
      <trkpt lat="58.7896119710058" lon="16.32921095006168">
        <ele>98.68</ele>
        <time>2025-01-27T11:29:47.347Z</time>
      </trkpt>
      <trkpt lat="58.78983593545854" lon="16.329347994178534">
        <ele>99.93</ele>
        <time>2025-01-27T11:29:51.670Z</time>
      </trkpt>
      <trkpt lat="58.79001899622381" lon="16.32951395586133">
        <ele>101.09</ele>
        <time>2025-01-27T11:29:56.020Z</time>
      </trkpt>
      <trkpt lat="58.79014698788524" lon="16.329475985839963">
        <ele>102.22</ele>
        <time>2025-01-27T11:30:00.387Z</time>
      </trkpt>
      <trkpt lat="58.79026299342513" lon="16.329604983329773">
        <ele>103.28</ele>
        <time>2025-01-27T11:30:04.772Z</time>
      </trkpt>
      <trkpt lat="58.79024094901979" lon="16.329733980819583">
        <ele>104.35</ele>
        <time>2025-01-27T11:30:09.166Z</time>
      </trkpt>
      <trkpt lat="58.790148999542" lon="16.33028592914343">
        <ele>105.46</ele>
        <time>2025-01-27T11:30:13.601Z</time>
      </trkpt>
      <trkpt lat="58.79010692238808" lon="16.330639980733395">
        <ele>106.55</ele>
        <time>2025-01-27T11:30:18.061Z</time>
      </trkpt>
      <trkpt lat="58.79009795375168" lon="16.330819940194488">
        <ele>107.57</ele>
        <time>2025-01-27T11:30:22.533Z</time>
      </trkpt>
      <trkpt lat="58.790079932659864" lon="16.3309729937464">
        <ele>108.56</ele>
        <time>2025-01-27T11:30:27.016Z</time>
      </trkpt>
      <trkpt lat="58.79000198096037" lon="16.331160999834538">
        <ele>109.46</ele>
        <time>2025-01-27T11:30:31.516Z</time>
      </trkpt>
      <trkpt lat="58.78994096070528" lon="16.331227971240878">
        <ele>110.25</ele>
        <time>2025-01-27T11:30:36.025Z</time>
      </trkpt>
      <trkpt lat="58.78986996598542" lon="16.33125194348395">
        <ele>110.98</ele>
        <time>2025-01-27T11:30:40.544Z</time>
      </trkpt>
      <trkpt lat="58.789755972102284" lon="16.331262923777103">
        <ele>111.62</ele>
        <time>2025-01-27T11:30:45.078Z</time>
      </trkpt>
      <trkpt lat="58.789691934362054" lon="16.331237945705652">
        <ele>112.14</ele>
        <time>2025-01-27T11:30:49.621Z</time>
      </trkpt>
      <trkpt lat="58.78962093964219" lon="16.33123593404889">
        <ele>112.58</ele>
        <time>2025-01-27T11:30:54.173Z</time>
      </trkpt>
      <trkpt lat="58.789542987942696" lon="16.331270970404148">
        <ele>112.96</ele>
        <time>2025-01-27T11:30:58.736Z</time>
      </trkpt>
      <trkpt lat="58.78947098739445" lon="16.331326961517334">
        <ele>113.26</ele>
        <time>2025-01-27T11:31:03.309Z</time>
      </trkpt>
      <trkpt lat="58.78934299573302" lon="16.331350933760405">
        <ele>113.47</ele>
        <time>2025-01-27T11:31:07.900Z</time>
      </trkpt>
      <trkpt lat="58.7891299277544" lon="16.331476997584105">
        <ele>113.55</ele>
        <time>2025-01-27T11:31:12.520Z</time>
      </trkpt>
      <trkpt lat="58.789089946076274" lon="16.331525947898626">
        <ele>113.67</ele>
        <time>2025-01-27T11:31:17.147Z</time>
      </trkpt>
      <trkpt lat="58.789049964398146" lon="16.331605995073915">
        <ele>113.76</ele>
        <time>2025-01-27T11:31:21.782Z</time>
      </trkpt>
      <trkpt lat="58.788932114839554" lon="16.33192584849894">
        <ele>113.79</ele>
        <time>2025-01-27T11:31:26.444Z</time>
      </trkpt>
      <trkpt lat="58.788814935833216" lon="16.3322439417243">
        <ele>113.78</ele>
        <time>2025-01-27T11:31:31.133Z</time>
      </trkpt>
      <trkpt lat="58.78871695138514" lon="16.332603944465518">
        <ele>113.8</ele>
        <time>2025-01-27T11:31:35.850Z</time>
      </trkpt>
      <trkpt lat="58.78867696970701" lon="16.33297693915665">
        <ele>113.86</ele>
        <time>2025-01-27T11:31:40.593Z</time>
      </trkpt>
      <trkpt lat="58.788659954443574" lon="16.33308095857501">
        <ele>113.86</ele>
        <time>2025-01-27T11:31:45.344Z</time>
      </trkpt>
      <trkpt lat="58.78863397054374" lon="16.333182966336608">
        <ele>113.84</ele>
        <time>2025-01-27T11:31:50.103Z</time>
      </trkpt>
      <trkpt lat="58.78849499858916" lon="16.33352897129953">
        <ele>113.85</ele>
        <time>2025-01-27T11:31:54.892Z</time>
      </trkpt>
      <trkpt lat="58.78844395279884" lon="16.333619998767972">
        <ele>113.82</ele>
        <time>2025-01-27T11:31:59.691Z</time>
      </trkpt>
      <trkpt lat="58.7883669231087" lon="16.333815967664123">
        <ele>113.77</ele>
        <time>2025-01-27T11:32:04.507Z</time>
      </trkpt>
      <trkpt lat="58.78830992616713" lon="16.333998944610357">
        <ele>113.77</ele>
        <time>2025-01-27T11:32:09.337Z</time>
      </trkpt>
      <trkpt lat="58.788254940882325" lon="16.334121990948915">
        <ele>113.69</ele>
        <time>2025-01-27T11:32:14.179Z</time>
      </trkpt>
      <trkpt lat="58.7881819345057" lon="16.334510995075107">
        <ele>113.64</ele>
        <time>2025-01-27T11:32:19.049Z</time>
      </trkpt>
      <trkpt lat="58.78808897919953" lon="16.33479991927743">
        <ele>113.55</ele>
        <time>2025-01-27T11:32:23.943Z</time>
      </trkpt>
      <trkpt lat="58.788041956722736" lon="16.33488591760397">
        <ele>113.42</ele>
        <time>2025-01-27T11:32:28.846Z</time>
      </trkpt>
      <trkpt lat="58.787889992818236" lon="16.334960935637355">
        <ele>113.25</ele>
        <time>2025-01-27T11:32:33.770Z</time>
      </trkpt>
      <trkpt lat="58.787824949249625" lon="16.335001923143864">
        <ele>113.09</ele>
        <time>2025-01-27T11:32:38.703Z</time>
      </trkpt>
      <trkpt lat="58.78776795230806" lon="16.335105942562222">
        <ele>112.91</ele>
        <time>2025-01-27T11:32:43.646Z</time>
      </trkpt>
      <trkpt lat="58.787630992010236" lon="16.33531498722732">
        <ele>112.68</ele>
        <time>2025-01-27T11:32:48.613Z</time>
      </trkpt>
      <trkpt lat="58.78758195787668" lon="16.3354629278183">
        <ele>112.52</ele>
        <time>2025-01-27T11:32:53.592Z</time>
      </trkpt>
      <trkpt lat="58.7875169981271" lon="16.335837934166193">
        <ele>112.3</ele>
        <time>2025-01-27T11:32:58.598Z</time>
      </trkpt>
      <trkpt lat="58.78747793845832" lon="16.335947988554835">
        <ele>112.08</ele>
        <time>2025-01-27T11:33:03.613Z</time>
      </trkpt>
      <trkpt lat="58.7874099612236" lon="16.33602392859757">
        <ele>111.85</ele>
        <time>2025-01-27T11:33:08.639Z</time>
      </trkpt>
      <trkpt lat="58.78734692931175" lon="16.336076986044645">
        <ele>111.61</ele>
        <time>2025-01-27T11:33:13.674Z</time>
      </trkpt>
      <trkpt lat="58.78724995069206" lon="16.33632098324597">
        <ele>111.32</ele>
        <time>2025-01-27T11:33:18.730Z</time>
      </trkpt>
      <trkpt lat="58.78717199899256" lon="16.336696995422244">
        <ele>111.1</ele>
        <time>2025-01-27T11:33:23.815Z</time>
      </trkpt>
      <trkpt lat="58.78721198067069" lon="16.33692992851138">
        <ele>110.9</ele>
        <time>2025-01-27T11:33:28.917Z</time>
      </trkpt>
      <trkpt lat="58.787156995385885" lon="16.337213991209865">
        <ele>110.71</ele>
        <time>2025-01-27T11:33:34.040Z</time>
      </trkpt>
      <trkpt lat="58.787112990394235" lon="16.337364949285984">
        <ele>110.46</ele>
        <time>2025-01-27T11:33:39.175Z</time>
      </trkpt>
      <trkpt lat="58.78706596791744" lon="16.337404930964112">
        <ele>110.16</ele>
        <time>2025-01-27T11:33:44.317Z</time>
      </trkpt>
      <trkpt lat="58.78701894544065" lon="16.337565947324038">
        <ele>109.9</ele>
        <time>2025-01-27T11:33:49.471Z</time>
      </trkpt>
      <trkpt lat="58.78694694489241" lon="16.337669966742396">
        <ele>109.6</ele>
        <time>2025-01-27T11:33:54.637Z</time>
      </trkpt>
      <trkpt lat="58.78688299097121" lon="16.337718917056918">
        <ele>109.26</ele>
        <time>2025-01-27T11:33:59.813Z</time>
      </trkpt>
      <trkpt lat="58.78681995905936" lon="16.337817991152406">
        <ele>108.91</ele>
        <time>2025-01-27T11:34:04.999Z</time>
      </trkpt>
      <trkpt lat="58.78665994852781" lon="16.337836934253573">
        <ele>108.44</ele>
        <time>2025-01-27T11:34:10.207Z</time>
      </trkpt>
      <trkpt lat="58.78662298433483" lon="16.337905917316675">
        <ele>108.06</ele>
        <time>2025-01-27T11:34:15.422Z</time>
      </trkpt>
      <trkpt lat="58.786533968523145" lon="16.33788999170065">
        <ele>107.6</ele>
        <time>2025-01-27T11:34:20.649Z</time>
      </trkpt>
      <trkpt lat="58.78641393966973" lon="16.33791195228696">
        <ele>107.11</ele>
        <time>2025-01-27T11:34:25.892Z</time>
      </trkpt>
      <trkpt lat="58.78634998574853" lon="16.337795946747065">
        <ele>106.64</ele>
        <time>2025-01-27T11:34:31.147Z</time>
      </trkpt>
      <trkpt lat="58.786299945786595" lon="16.33776392787695">
        <ele>106.26</ele>
        <time>2025-01-27T11:34:36.409Z</time>
      </trkpt>
      <trkpt lat="58.78627094440162" lon="16.33779091760516">
        <ele>105.96</ele>
        <time>2025-01-27T11:34:41.675Z</time>
      </trkpt>
      <trkpt lat="58.786253929138184" lon="16.33784699253738">
        <ele>105.73</ele>
        <time>2025-01-27T11:34:46.945Z</time>
      </trkpt>
      <trkpt lat="58.78626792691648" lon="16.338251922279596">
        <ele>105.74</ele>
        <time>2025-01-27T11:34:52.244Z</time>
      </trkpt>
      <trkpt lat="58.78625996410847" lon="16.33853891864419">
        <ele>105.68</ele>
        <time>2025-01-27T11:34:57.563Z</time>
      </trkpt>
      <trkpt lat="58.78622492775321" lon="16.338672945275903">
        <ele>105.54</ele>
        <time>2025-01-27T11:35:02.892Z</time>
      </trkpt>
      <trkpt lat="58.78615594469011" lon="16.3387939799577">
        <ele>105.4</ele>
        <time>2025-01-27T11:35:08.233Z</time>
      </trkpt>
      <trkpt lat="58.786082938313484" lon="16.33888492360711">
        <ele>105.24</ele>
        <time>2025-01-27T11:35:13.586Z</time>
      </trkpt>
      <trkpt lat="58.78601093776524" lon="16.33903294801712">
        <ele>105.14</ele>
        <time>2025-01-27T11:35:18.953Z</time>
      </trkpt>
      <trkpt lat="58.785956958308816" lon="16.339214919134974">
        <ele>105.14</ele>
        <time>2025-01-27T11:35:24.335Z</time>
      </trkpt>
      <trkpt lat="58.78592795692384" lon="16.339477943256497">
        <ele>105.2</ele>
        <time>2025-01-27T11:35:29.735Z</time>
      </trkpt>
      <trkpt lat="58.78594296053052" lon="16.33976192213595">
        <ele>105.32</ele>
        <time>2025-01-27T11:35:35.155Z</time>
      </trkpt>
      <trkpt lat="58.785938937217" lon="16.339941965416074">
        <ele>105.43</ele>
        <time>2025-01-27T11:35:40.588Z</time>
      </trkpt>
      <trkpt lat="58.78594597801566" lon="16.340075992047787">
        <ele>105.52</ele>
        <time>2025-01-27T11:35:46.030Z</time>
      </trkpt>
      <trkpt lat="58.78590398468077" lon="16.340207923203707">
        <ele>105.56</ele>
        <time>2025-01-27T11:35:51.483Z</time>
      </trkpt>
      <trkpt lat="58.78583994694054" lon="16.34036592207849">
        <ele>105.53</ele>
        <time>2025-01-27T11:35:56.950Z</time>
      </trkpt>
      <trkpt lat="58.785806922242045" lon="16.340547977015376">
        <ele>105.58</ele>
        <time>2025-01-27T11:36:02.430Z</time>
      </trkpt>
      <trkpt lat="58.785761995241046" lon="16.340724918991327">
        <ele>105.62</ele>
        <time>2025-01-27T11:36:07.924Z</time>
      </trkpt>
      <trkpt lat="58.78573299385607" lon="16.34088099002838">
        <ele>105.66</ele>
        <time>2025-01-27T11:36:13.429Z</time>
      </trkpt>
      <trkpt lat="58.78572595305741" lon="16.34125918149948">
        <ele>105.71</ele>
        <time>2025-01-27T11:36:18.960Z</time>
      </trkpt>
      <trkpt lat="58.785718996077776" lon="16.34163494221866">
        <ele>105.75</ele>
        <time>2025-01-27T11:36:24.518Z</time>
      </trkpt>
      <trkpt lat="58.7857349216938" lon="16.34180098772049">
        <ele>105.82</ele>
        <time>2025-01-27T11:36:30.087Z</time>
      </trkpt>
      <trkpt lat="58.78579393029213" lon="16.34195395745337">
        <ele>105.92</ele>
        <time>2025-01-27T11:36:35.670Z</time>
      </trkpt>
      <trkpt lat="58.78583298996091" lon="16.342114973813295">
        <ele>105.98</ele>
        <time>2025-01-27T11:36:41.265Z</time>
      </trkpt>
      <trkpt lat="58.785850927233696" lon="16.342261992394924">
        <ele>106.01</ele>
        <time>2025-01-27T11:36:46.870Z</time>
      </trkpt>
      <trkpt lat="58.78585796803236" lon="16.342457961291075">
        <ele>106.01</ele>
        <time>2025-01-27T11:36:52.489Z</time>
      </trkpt>
      <trkpt lat="58.78585293889046" lon="16.342645967379212">
        <ele>105.96</ele>
        <time>2025-01-27T11:36:58.121Z</time>
      </trkpt>
      <trkpt lat="58.785827960819006" lon="16.343189952895045">
        <ele>105.89</ele>
        <time>2025-01-27T11:37:03.791Z</time>
      </trkpt>
      <trkpt lat="58.785807928070426" lon="16.343294978141785">
        <ele>105.79</ele>
        <time>2025-01-27T11:37:09.469Z</time>
      </trkpt>
      <trkpt lat="58.78568295389414" lon="16.343704937025905">
        <ele>105.63</ele>
        <time>2025-01-27T11:37:15.180Z</time>
      </trkpt>
      <trkpt lat="58.78562595695257" lon="16.343812979757786">
        <ele>105.47</ele>
        <time>2025-01-27T11:37:20.901Z</time>
      </trkpt>
      <trkpt lat="58.78557499498129" lon="16.343873916193843">
        <ele>105.31</ele>
        <time>2025-01-27T11:37:26.630Z</time>
      </trkpt>
      <trkpt lat="58.78553291782737" lon="16.343957986682653">
        <ele>105.14</ele>
        <time>2025-01-27T11:37:32.367Z</time>
      </trkpt>
      <trkpt lat="58.78549092449248" lon="16.34410492144525">
        <ele>104.96</ele>
        <time>2025-01-27T11:37:38.116Z</time>
      </trkpt>
      <trkpt lat="58.78531792201102" lon="16.344603979960084">
        <ele>104.65</ele>
        <time>2025-01-27T11:37:43.907Z</time>
      </trkpt>
      <trkpt lat="58.78527995198965" lon="16.344761978834867">
        <ele>104.45</ele>
        <time>2025-01-27T11:37:49.710Z</time>
      </trkpt>
      <trkpt lat="58.78525095060468" lon="16.34493699297309">
        <ele>104.27</ele>
        <time>2025-01-27T11:37:55.526Z</time>
      </trkpt>
      <trkpt lat="58.78525095060468" lon="16.34530697017908">
        <ele>104.13</ele>
        <time>2025-01-27T11:38:01.367Z</time>
      </trkpt>
      <trkpt lat="58.78526193089783" lon="16.345617938786745">
        <ele>104.03</ele>
        <time>2025-01-27T11:38:07.230Z</time>
      </trkpt>
      <trkpt lat="58.785350946709514" lon="16.345850955694914">
        <ele>103.9</ele>
        <time>2025-01-27T11:38:13.113Z</time>
      </trkpt>
      <trkpt lat="58.7854259647429" lon="16.34625094011426">
        <ele>103.78</ele>
        <time>2025-01-27T11:38:19.026Z</time>
      </trkpt>
      <trkpt lat="58.78542898222804" lon="16.346427965909243">
        <ele>103.62</ele>
        <time>2025-01-27T11:38:24.951Z</time>
      </trkpt>
      <trkpt lat="58.78545396029949" lon="16.34657297283411">
        <ele>103.48</ele>
        <time>2025-01-27T11:38:30.886Z</time>
      </trkpt>
      <trkpt lat="58.78544993698597" lon="16.34678998030722">
        <ele>103.29</ele>
        <time>2025-01-27T11:38:36.836Z</time>
      </trkpt>
      <trkpt lat="58.78545496612787" lon="16.34698293171823">
        <ele>103.09</ele>
        <time>2025-01-27T11:38:42.800Z</time>
      </trkpt>
      <trkpt lat="58.785481955856085" lon="16.347213936969638">
        <ele>102.89</ele>
        <time>2025-01-27T11:38:48.780Z</time>
      </trkpt>
      <trkpt lat="58.7855139747262" lon="16.347398925572634">
        <ele>102.71</ele>
        <time>2025-01-27T11:38:54.774Z</time>
      </trkpt>
      <trkpt lat="58.785522943362594" lon="16.347588943317533">
        <ele>102.51</ele>
        <time>2025-01-27T11:39:00.781Z</time>
      </trkpt>
      <trkpt lat="58.785546999424696" lon="16.3478409871459">
        <ele>102.31</ele>
        <time>2025-01-27T11:39:06.806Z</time>
      </trkpt>
      <trkpt lat="58.785549933090806" lon="16.34807199239731">
        <ele>102.09</ele>
        <time>2025-01-27T11:39:12.847Z</time>
      </trkpt>
      <trkpt lat="58.785500982776284" lon="16.348495949059725">
        <ele>101.86</ele>
        <time>2025-01-27T11:39:18.918Z</time>
      </trkpt>
      <trkpt lat="58.78549394197762" lon="16.348667945712805">
        <ele>101.58</ele>
        <time>2025-01-27T11:39:25.001Z</time>
      </trkpt>
      <trkpt lat="58.78545396029949" lon="16.34880691766739">
        <ele>101.22</ele>
        <time>2025-01-27T11:39:31.095Z</time>
      </trkpt>
      <trkpt lat="58.78540492616594" lon="16.34887397289276">
        <ele>100.79</ele>
        <time>2025-01-27T11:39:37.197Z</time>
      </trkpt>
      <trkpt lat="58.785264948382974" lon="16.3489549420774">
        <ele>100.31</ele>
        <time>2025-01-27T11:39:43.319Z</time>
      </trkpt>
      <trkpt lat="58.78516897559166" lon="16.349037922918797">
        <ele>99.76</ele>
        <time>2025-01-27T11:39:49.455Z</time>
      </trkpt>
      <trkpt lat="58.78510099835694" lon="16.349157951772213">
        <ele>99.14</ele>
        <time>2025-01-27T11:39:55.603Z</time>
      </trkpt>
      <trkpt lat="58.785051964223385" lon="16.349267922341824">
        <ele>98.49</ele>
        <time>2025-01-27T11:40:01.761Z</time>
      </trkpt>
      <trkpt lat="58.78500293008983" lon="16.349340928718448">
        <ele>97.8</ele>
        <time>2025-01-27T11:40:07.927Z</time>
      </trkpt>
      <trkpt lat="58.78493294119835" lon="16.349426927044988">
        <ele>97.09</ele>
        <time>2025-01-27T11:40:14.104Z</time>
      </trkpt>
      <trkpt lat="58.78487099893391" lon="16.349463975057006">
        <ele>96.33</ele>
        <time>2025-01-27T11:40:20.290Z</time>
      </trkpt>
      <trkpt lat="58.78482699394226" lon="16.34958492591977">
        <ele>95.5</ele>
        <time>2025-01-27T11:40:26.486Z</time>
      </trkpt>
      <trkpt lat="58.784774942323565" lon="16.34967092424631">
        <ele>94.63</ele>
        <time>2025-01-27T11:40:32.692Z</time>
      </trkpt>
      <trkpt lat="58.7847369723022" lon="16.349694980308414">
        <ele>93.75</ele>
        <time>2025-01-27T11:40:38.903Z</time>
      </trkpt>
      <trkpt lat="58.784556929022074" lon="16.350066969171166">
        <ele>92.71</ele>
        <time>2025-01-27T11:40:45.149Z</time>
      </trkpt>
      <trkpt lat="58.784494986757636" lon="16.350177945569158">
        <ele>91.76</ele>
        <time>2025-01-27T11:40:51.406Z</time>
      </trkpt>
      <trkpt lat="58.784405970945954" lon="16.350244916975498">
        <ele>90.79</ele>
        <time>2025-01-27T11:40:57.676Z</time>
      </trkpt>
      <trkpt lat="58.784325923770666" lon="16.350300991907716">
        <ele>89.84</ele>
        <time>2025-01-27T11:41:03.958Z</time>
      </trkpt>
      <trkpt lat="58.78424797207117" lon="16.350391935557127">
        <ele>88.9</ele>
        <time>2025-01-27T11:41:10.252Z</time>
      </trkpt>
      <trkpt lat="58.784015625715256" lon="16.350472569465637">
        <ele>87.85</ele>
        <time>2025-01-27T11:41:16.577Z</time>
      </trkpt>
      <trkpt lat="58.783783949911594" lon="16.350552951917052">
        <ele>86.9</ele>
        <time>2025-01-27T11:41:22.934Z</time>
      </trkpt>
      <trkpt lat="58.78363911062479" lon="16.350824609398842">
        <ele>86.03</ele>
        <time>2025-01-27T11:41:29.318Z</time>
      </trkpt>
      <trkpt lat="58.78349494189024" lon="16.351094925776124">
        <ele>85.35</ele>
        <time>2025-01-27T11:41:35.729Z</time>
      </trkpt>
      <trkpt lat="58.78329494968057" lon="16.35129894129932">
        <ele>84.66</ele>
        <time>2025-01-27T11:41:42.170Z</time>
      </trkpt>
      <trkpt lat="58.783165365457535" lon="16.35171032510698">
        <ele>84.18</ele>
        <time>2025-01-27T11:41:48.644Z</time>
      </trkpt>
      <trkpt lat="58.78303569741547" lon="16.35212179273367">
        <ele>83.76</ele>
        <time>2025-01-27T11:41:55.152Z</time>
      </trkpt>
      <trkpt lat="58.78290611319244" lon="16.35253317654133">
        <ele>83.49</ele>
        <time>2025-01-27T11:42:01.693Z</time>
      </trkpt>
      <trkpt lat="58.782777953892946" lon="16.352939950302243">
        <ele>83.29</ele>
        <time>2025-01-27T11:42:08.267Z</time>
      </trkpt>
      <trkpt lat="58.78267862834036" lon="16.35340539738536">
        <ele>83.22</ele>
        <time>2025-01-27T11:42:14.876Z</time>
      </trkpt>
      <trkpt lat="58.782579973340034" lon="16.353867994621396">
        <ele>83.12</ele>
        <time>2025-01-27T11:42:21.520Z</time>
      </trkpt>
      <trkpt lat="58.782493975013494" lon="16.354377949610353">
        <ele>82.98</ele>
        <time>2025-01-27T11:42:28.201Z</time>
      </trkpt>
      <trkpt lat="58.78240772522986" lon="16.35463871061802">
        <ele>82.9</ele>
        <time>2025-01-27T11:42:34.904Z</time>
      </trkpt>
      <trkpt lat="58.782321978360415" lon="16.354897962883115">
        <ele>82.84</ele>
        <time>2025-01-27T11:42:41.628Z</time>
      </trkpt>
      <trkpt lat="58.78209047019482" lon="16.35528235696256">
        <ele>82.75</ele>
        <time>2025-01-27T11:42:48.393Z</time>
      </trkpt>
      <trkpt lat="58.7818599678576" lon="16.355664990842342">
        <ele>82.79</ele>
        <time>2025-01-27T11:42:55.198Z</time>
      </trkpt>
      <trkpt lat="58.78188796341419" lon="16.356126917526126">
        <ele>83.09</ele>
        <time>2025-01-27T11:43:02.036Z</time>
      </trkpt>
      <trkpt lat="58.781806994229555" lon="16.356646930798888">
        <ele>83.51</ele>
        <time>2025-01-27T11:43:08.911Z</time>
      </trkpt>
      <trkpt lat="58.781594010069966" lon="16.35694256052375">
        <ele>83.89</ele>
        <time>2025-01-27T11:43:15.821Z</time>
      </trkpt>
      <trkpt lat="58.781381947919726" lon="16.357236932963133">
        <ele>84.27</ele>
        <time>2025-01-27T11:43:22.766Z</time>
      </trkpt>
      <trkpt lat="58.78136199899018" lon="16.357456957921386">
        <ele>84.61</ele>
        <time>2025-01-27T11:43:29.727Z</time>
      </trkpt>
      <trkpt lat="58.781245993450284" lon="16.357714952901006">
        <ele>85.0</ele>
        <time>2025-01-27T11:43:36.712Z</time>
      </trkpt>
      <trkpt lat="58.78102898597717" lon="16.358035979792476">
        <ele>85.42</ele>
        <time>2025-01-27T11:43:43.733Z</time>
      </trkpt>
      <trkpt lat="58.78092513419688" lon="16.358437137678266">
        <ele>85.89</ele>
        <time>2025-01-27T11:43:50.785Z</time>
      </trkpt>
      <trkpt lat="58.78085749223828" lon="16.35869831778109">
        <ele>86.27</ele>
        <time>2025-01-27T11:43:57.858Z</time>
      </trkpt>
      <trkpt lat="58.780821952968836" lon="16.358835948631167">
        <ele>86.67</ele>
        <time>2025-01-27T11:44:04.941Z</time>
      </trkpt>
      <trkpt lat="58.78074995242059" lon="16.359157981351018">
        <ele>87.07</ele>
        <time>2025-01-27T11:44:12.049Z</time>
      </trkpt>
      <trkpt lat="58.78069999627769" lon="16.359414970502257">
        <ele>87.42</ele>
        <time>2025-01-27T11:44:19.176Z</time>
      </trkpt>
      <trkpt lat="58.78063294105232" lon="16.35948495939374">
        <ele>87.78</ele>
        <time>2025-01-27T11:44:26.313Z</time>
      </trkpt>
      <trkpt lat="58.780537974089384" lon="16.359537933021784">
        <ele>88.08</ele>
        <time>2025-01-27T11:44:33.463Z</time>
      </trkpt>
      <trkpt lat="58.780462956056" lon="16.35961395688355">
        <ele>88.36</ele>
        <time>2025-01-27T11:44:40.624Z</time>
      </trkpt>
      <trkpt lat="58.780323984101415" lon="16.35972099378705">
        <ele>88.59</ele>
        <time>2025-01-27T11:44:47.805Z</time>
      </trkpt>
      <trkpt lat="58.78025198355317" lon="16.359951999038458">
        <ele>88.86</ele>
        <time>2025-01-27T11:44:55.005Z</time>
      </trkpt>
      <trkpt lat="58.780198926106095" lon="16.36019792407751">
        <ele>89.11</ele>
        <time>2025-01-27T11:45:02.224Z</time>
      </trkpt>
      <trkpt lat="58.780159866437316" lon="16.360617773607373">
        <ele>89.35</ele>
        <time>2025-01-27T11:45:09.472Z</time>
      </trkpt>
      <trkpt lat="58.7801209744066" lon="16.36103494092822">
        <ele>89.59</ele>
        <time>2025-01-27T11:45:16.750Z</time>
      </trkpt>
      <trkpt lat="58.780151987448335" lon="16.361276926472783">
        <ele>89.79</ele>
        <time>2025-01-27T11:45:24.045Z</time>
      </trkpt>
      <trkpt lat="58.78016799688339" lon="16.361474990844727">
        <ele>89.98</ele>
        <time>2025-01-27T11:45:31.354Z</time>
      </trkpt>
      <trkpt lat="58.78014595247805" lon="16.361732985824347">
        <ele>90.15</ele>
        <time>2025-01-27T11:45:38.681Z</time>
      </trkpt>
      <trkpt lat="58.78010496497154" lon="16.36189299635589">
        <ele>90.34</ele>
        <time>2025-01-27T11:45:46.020Z</time>
      </trkpt>
      <trkpt lat="58.78003195859492" lon="16.36210296303034">
        <ele>90.51</ele>
        <time>2025-01-27T11:45:53.377Z</time>
      </trkpt>
      <trkpt lat="58.77996297553182" lon="16.362225925549865">
        <ele>90.69</ele>
        <time>2025-01-27T11:46:00.746Z</time>
      </trkpt>
      <trkpt lat="58.77990698441863" lon="16.362284934148192">
        <ele>90.86</ele>
        <time>2025-01-27T11:46:08.124Z</time>
      </trkpt>
      <trkpt lat="58.7798429466784" lon="16.36238694190979">
        <ele>91.07</ele>
        <time>2025-01-27T11:46:15.513Z</time>
      </trkpt>
      <trkpt lat="58.779804054647684" lon="16.36256572790444">
        <ele>91.27</ele>
        <time>2025-01-27T11:46:22.916Z</time>
      </trkpt>
      <trkpt lat="58.779804138466716" lon="16.362566063180566">
        <ele>91.46</ele>
        <time>2025-01-27T11:46:30.319Z</time>
      </trkpt>
      <trkpt lat="58.77980397082865" lon="16.36256723664701">
        <ele>91.65</ele>
        <time>2025-01-27T11:46:37.722Z</time>
      </trkpt>
      <trkpt lat="58.779804054647684" lon="16.36256723664701">
        <ele>91.85</ele>
        <time>2025-01-27T11:46:45.125Z</time>
      </trkpt>
      <trkpt lat="58.779804138466716" lon="16.36256723664701">
        <ele>92.06</ele>
        <time>2025-01-27T11:46:52.528Z</time>
      </trkpt>
      <trkpt lat="58.779804138466716" lon="16.36256732046604">
        <ele>92.27</ele>
        <time>2025-01-27T11:46:59.931Z</time>
      </trkpt>
      <trkpt lat="58.779804138466716" lon="16.362567571923137">
        <ele>92.5</ele>
        <time>2025-01-27T11:47:07.334Z</time>
      </trkpt>
      <trkpt lat="58.779804138466716" lon="16.36256765574217">
        <ele>92.74</ele>
        <time>2025-01-27T11:47:14.737Z</time>
      </trkpt>
      <trkpt lat="58.77980388700962" lon="16.36256924830377">
        <ele>92.98</ele>
        <time>2025-01-27T11:47:22.140Z</time>
      </trkpt>
      <trkpt lat="58.77980397082865" lon="16.362568996846676">
        <ele>93.23</ele>
        <time>2025-01-27T11:47:29.543Z</time>
      </trkpt>
      <trkpt lat="58.7797739636153" lon="16.362788937985897">
        <ele>93.48</ele>
        <time>2025-01-27T11:47:36.962Z</time>
      </trkpt>
      <trkpt lat="58.779767928645015" lon="16.362997982650995">
        <ele>93.74</ele>
        <time>2025-01-27T11:47:44.395Z</time>
      </trkpt>
      <trkpt lat="58.77979894168675" lon="16.363282967358828">
        <ele>94.01</ele>
        <time>2025-01-27T11:47:51.848Z</time>
      </trkpt>
      <trkpt lat="58.77979592420161" lon="16.363300988450646">
        <ele>94.26</ele>
        <time>2025-01-27T11:47:59.303Z</time>
      </trkpt>
      <trkpt lat="58.77973498776555" lon="16.363856960088015">
        <ele>94.56</ele>
        <time>2025-01-27T11:48:06.797Z</time>
      </trkpt>
      <trkpt lat="58.779656952247024" lon="16.364290975034237">
        <ele>94.83</ele>
        <time>2025-01-27T11:48:14.323Z</time>
      </trkpt>
      <trkpt lat="58.779572965577245" lon="16.364564979448915">
        <ele>95.06</ele>
        <time>2025-01-27T11:48:21.871Z</time>
      </trkpt>
      <trkpt lat="58.779506999999285" lon="16.364709986373782">
        <ele>95.25</ele>
        <time>2025-01-27T11:48:29.432Z</time>
      </trkpt>
      <trkpt lat="58.77942091785371" lon="16.364805959165096">
        <ele>95.42</ele>
        <time>2025-01-27T11:48:37.007Z</time>
      </trkpt>
      <trkpt lat="58.77931195311248" lon="16.36487594805658">
        <ele>95.54</ele>
        <time>2025-01-27T11:48:44.597Z</time>
      </trkpt>
      <trkpt lat="58.77915596589446" lon="16.36493998579681">
        <ele>95.62</ele>
        <time>2025-01-27T11:48:52.208Z</time>
      </trkpt>
      <trkpt lat="58.77902596257627" lon="16.364934956654906">
        <ele>95.63</ele>
        <time>2025-01-27T11:48:59.837Z</time>
      </trkpt>
      <trkpt lat="58.77894499339163" lon="16.365041993558407">
        <ele>95.6</ele>
        <time>2025-01-27T11:49:07.479Z</time>
      </trkpt>
      <trkpt lat="58.778841979801655" lon="16.3652409799397">
        <ele>95.51</ele>
        <time>2025-01-27T11:49:15.140Z</time>
      </trkpt>
      <trkpt lat="58.778713988140225" lon="16.365578938275576">
        <ele>95.37</ele>
        <time>2025-01-27T11:49:22.830Z</time>
      </trkpt>
      <trkpt lat="58.7786359526217" lon="16.365830982103944">
        <ele>95.14</ele>
        <time>2025-01-27T11:49:30.541Z</time>
      </trkpt>
      <trkpt lat="58.77858096733689" lon="16.366152931004763">
        <ele>94.81</ele>
        <time>2025-01-27T11:49:38.275Z</time>
      </trkpt>
      <trkpt lat="58.77856093458831" lon="16.366409920156002">
        <ele>94.36</ele>
        <time>2025-01-27T11:49:46.027Z</time>
      </trkpt>
      <trkpt lat="58.77849195152521" lon="16.36657697148621">
        <ele>93.82</ele>
        <time>2025-01-27T11:49:53.794Z</time>
      </trkpt>
      <trkpt lat="58.77837795764208" lon="16.366742933169007">
        <ele>93.17</ele>
        <time>2025-01-27T11:50:01.580Z</time>
      </trkpt>
      <trkpt lat="58.77829195931554" lon="16.366822980344296">
        <ele>92.47</ele>
        <time>2025-01-27T11:50:09.379Z</time>
      </trkpt>
      <trkpt lat="58.778218952938914" lon="16.36696295812726">
        <ele>91.72</ele>
        <time>2025-01-27T11:50:17.192Z</time>
      </trkpt>
      <trkpt lat="58.77814996987581" lon="16.367058930918574">
        <ele>90.88</ele>
        <time>2025-01-27T11:50:25.016Z</time>
      </trkpt>
      <trkpt lat="58.778049973770976" lon="16.367085920646787">
        <ele>89.96</ele>
        <time>2025-01-27T11:50:32.854Z</time>
      </trkpt>
      <trkpt lat="58.77795492298901" lon="16.367075946182013">
        <ele>88.99</ele>
        <time>2025-01-27T11:50:40.704Z</time>
      </trkpt>
      <trkpt lat="58.777810921892524" lon="16.367128919810057">
        <ele>87.93</ele>
        <time>2025-01-27T11:50:48.574Z</time>
      </trkpt>
      <trkpt lat="58.777687959373" lon="16.367252971976995">
        <ele>86.85</ele>
        <time>2025-01-27T11:50:56.463Z</time>
      </trkpt>
      <trkpt lat="58.77751898020506" lon="16.367353973910213">
        <ele>85.71</ele>
        <time>2025-01-27T11:51:04.375Z</time>
      </trkpt>
      <trkpt lat="58.777426946908236" lon="16.36739194393158">
        <ele>84.58</ele>
        <time>2025-01-27T11:51:12.300Z</time>
      </trkpt>
      <trkpt lat="58.777317982167006" lon="16.367385992780328">
        <ele>83.43</ele>
        <time>2025-01-27T11:51:20.239Z</time>
      </trkpt>
      <trkpt lat="58.77718194387853" lon="16.36724199168384">
        <ele>82.18</ele>
        <time>2025-01-27T11:51:28.199Z</time>
      </trkpt>
      <trkpt lat="58.77713492140174" lon="16.367203937843442">
        <ele>81.03</ele>
        <time>2025-01-27T11:51:36.166Z</time>
      </trkpt>
      <trkpt lat="58.77700994722545" lon="16.367139983922243">
        <ele>79.83</ele>
        <time>2025-01-27T11:51:44.150Z</time>
      </trkpt>
      <trkpt lat="58.77682093530893" lon="16.367117939516902">
        <ele>78.59</ele>
        <time>2025-01-27T11:51:52.160Z</time>
      </trkpt>
      <trkpt lat="58.77659495919943" lon="16.367015931755304">
        <ele>77.41</ele>
        <time>2025-01-27T11:52:00.201Z</time>
      </trkpt>
      <trkpt lat="58.77651591785252" lon="16.366954995319247">
        <ele>76.41</ele>
        <time>2025-01-27T11:52:08.253Z</time>
      </trkpt>
      <trkpt lat="58.77659495919943" lon="16.36638091877103">
        <ele>75.5</ele>
        <time>2025-01-27T11:52:16.346Z</time>
      </trkpt>
      <trkpt lat="58.77661691978574" lon="16.366070955991745">
        <ele>74.63</ele>
        <time>2025-01-27T11:52:24.461Z</time>
      </trkpt>
      <trkpt lat="58.776608956977725" lon="16.36586492881179">
        <ele>73.85</ele>
        <time>2025-01-27T11:52:32.590Z</time>
      </trkpt>
      <trkpt lat="58.77659194171429" lon="16.365788988769054">
        <ele>73.15</ele>
        <time>2025-01-27T11:52:40.725Z</time>
      </trkpt>
      <trkpt lat="58.77655698917806" lon="16.36562998406589">
        <ele>72.49</ele>
        <time>2025-01-27T11:52:48.872Z</time>
      </trkpt>
      <trkpt lat="58.77654089592397" lon="16.365592181682587">
        <ele>71.94</ele>
        <time>2025-01-27T11:52:57.022Z</time>
      </trkpt>
      <trkpt lat="58.77646294422448" lon="16.365408953279257">
        <ele>71.43</ele>
        <time>2025-01-27T11:53:05.189Z</time>
      </trkpt>
      <trkpt lat="58.776391949504614" lon="16.365217929705977">
        <ele>71.08</ele>
        <time>2025-01-27T11:53:13.372Z</time>
      </trkpt>
      <trkpt lat="58.77639094367623" lon="16.365216923877597">
        <ele>70.74</ele>
        <time>2025-01-27T11:53:21.555Z</time>
      </trkpt>
      <trkpt lat="58.77631198614836" lon="16.365000922232866">
        <ele>70.51</ele>
        <time>2025-01-27T11:53:29.757Z</time>
      </trkpt>
      <trkpt lat="58.77620595507324" lon="16.364740999415517">
        <ele>70.44</ele>
        <time>2025-01-27T11:53:37.982Z</time>
      </trkpt>
      <trkpt lat="58.776113921776414" lon="16.364647960290313">
        <ele>70.33</ele>
        <time>2025-01-27T11:53:46.220Z</time>
      </trkpt>
      <trkpt lat="58.7760039512068" lon="16.36464494280517">
        <ele>70.23</ele>
        <time>2025-01-27T11:53:54.473Z</time>
      </trkpt>
      <trkpt lat="58.775750985369086" lon="16.364909978583455">
        <ele>70.18</ele>
        <time>2025-01-27T11:54:02.765Z</time>
      </trkpt>
      <trkpt lat="58.775553507730365" lon="16.36529034934938">
        <ele>70.08</ele>
        <time>2025-01-27T11:54:11.094Z</time>
      </trkpt>
      <trkpt lat="58.77535695210099" lon="16.365668959915638">
        <ele>69.99</ele>
        <time>2025-01-27T11:54:19.460Z</time>
      </trkpt>
      <trkpt lat="58.775329291820526" lon="16.36575797572732">
        <ele>69.85</ele>
        <time>2025-01-27T11:54:27.833Z</time>
      </trkpt>
      <trkpt lat="58.775245137512684" lon="16.366029968485236">
        <ele>69.64</ele>
        <time>2025-01-27T11:54:36.228Z</time>
      </trkpt>
      <trkpt lat="58.77513399347663" lon="16.366388965398073">
        <ele>69.34</ele>
        <time>2025-01-27T11:54:44.652Z</time>
      </trkpt>
      <trkpt lat="58.774854792281985" lon="16.3666501455009">
        <ele>69.14</ele>
        <time>2025-01-27T11:54:53.118Z</time>
      </trkpt>
      <trkpt lat="58.77457559108734" lon="16.366911241784692">
        <ele>68.96</ele>
        <time>2025-01-27T11:55:01.625Z</time>
      </trkpt>
      <trkpt lat="58.7742979824543" lon="16.367170996963978">
        <ele>68.81</ele>
        <time>2025-01-27T11:55:10.174Z</time>
      </trkpt>
      <trkpt lat="58.77415515482426" lon="16.36733829975128">
        <ele>68.69</ele>
        <time>2025-01-27T11:55:18.745Z</time>
      </trkpt>
      <trkpt lat="58.77401299774647" lon="16.367504931986332">
        <ele>68.69</ele>
        <time>2025-01-27T11:55:27.338Z</time>
      </trkpt>
      <trkpt lat="58.77392993308604" lon="16.367509961128235">
        <ele>68.79</ele>
        <time>2025-01-27T11:55:35.942Z</time>
      </trkpt>
      <trkpt lat="58.77385692670941" lon="16.367316925898194">
        <ele>68.98</ele>
        <time>2025-01-27T11:55:44.563Z</time>
      </trkpt>
      <trkpt lat="58.773896573111415" lon="16.36688961647451">
        <ele>69.24</ele>
        <time>2025-01-27T11:55:53.214Z</time>
      </trkpt>
      <trkpt lat="58.77393596805632" lon="16.36646498925984">
        <ele>69.52</ele>
        <time>2025-01-27T11:56:01.895Z</time>
      </trkpt>
      <trkpt lat="58.7739715911448" lon="16.366140441969037">
        <ele>69.86</ele>
        <time>2025-01-27T11:56:10.599Z</time>
      </trkpt>
      <trkpt lat="58.774006962776184" lon="16.365817990154028">
        <ele>70.19</ele>
        <time>2025-01-27T11:56:19.326Z</time>
      </trkpt>
      <trkpt lat="58.773944936692715" lon="16.365377940237522">
        <ele>70.59</ele>
        <time>2025-01-27T11:56:28.084Z</time>
      </trkpt>
      <trkpt lat="58.77384594641626" lon="16.365294959396124">
        <ele>71.05</ele>
        <time>2025-01-27T11:56:36.857Z</time>
      </trkpt>
      <trkpt lat="58.77371694892645" lon="16.36526394635439">
        <ele>71.54</ele>
        <time>2025-01-27T11:56:45.647Z</time>
      </trkpt>
      <trkpt lat="58.77359692007303" lon="16.365295965224504">
        <ele>72.12</ele>
        <time>2025-01-27T11:56:54.453Z</time>
      </trkpt>
      <trkpt lat="58.773361975327134" lon="16.365527976304293">
        <ele>72.83</ele>
        <time>2025-01-27T11:57:03.295Z</time>
      </trkpt>
      <trkpt lat="58.77326097339392" lon="16.365956962108612">
        <ele>73.49</ele>
        <time>2025-01-27T11:57:12.169Z</time>
      </trkpt>
      <trkpt lat="58.77315217629075" lon="16.366285867989063">
        <ele>74.24</ele>
        <time>2025-01-27T11:57:21.071Z</time>
      </trkpt>
      <trkpt lat="58.773043965920806" lon="16.366612929850817">
        <ele>74.99</ele>
        <time>2025-01-27T11:57:29.999Z</time>
      </trkpt>
      <trkpt lat="58.772954950109124" lon="16.367145935073495">
        <ele>75.69</ele>
        <time>2025-01-27T11:57:38.966Z</time>
      </trkpt>
      <trkpt lat="58.7727109529078" lon="16.367356991395354">
        <ele>76.55</ele>
        <time>2025-01-27T11:57:47.969Z</time>
      </trkpt>
      <trkpt lat="58.77247592434287" lon="16.36760593391955">
        <ele>77.33</ele>
        <time>2025-01-27T11:57:57.008Z</time>
      </trkpt>
      <trkpt lat="58.77236067317426" lon="16.36793232522905">
        <ele>77.95</ele>
        <time>2025-01-27T11:58:06.074Z</time>
      </trkpt>
      <trkpt lat="58.772245924919844" lon="16.368256956338882">
        <ele>78.48</ele>
        <time>2025-01-27T11:58:15.168Z</time>
      </trkpt>
      <trkpt lat="58.7721947953105" lon="16.368549400940537">
        <ele>79.03</ele>
        <time>2025-01-27T11:58:24.283Z</time>
      </trkpt>
      <trkpt lat="58.772143917158246" lon="16.368839917704463">
        <ele>79.53</ele>
        <time>2025-01-27T11:58:33.419Z</time>
      </trkpt>
      <trkpt lat="58.77197460271418" lon="16.369133619591594">
        <ele>80.06</ele>
        <time>2025-01-27T11:58:42.586Z</time>
      </trkpt>
      <trkpt lat="58.77180595882237" lon="16.369425980374217">
        <ele>80.58</ele>
        <time>2025-01-27T11:58:51.783Z</time>
      </trkpt>
      <trkpt lat="58.77173496410251" lon="16.369547937065363">
        <ele>81.0</ele>
        <time>2025-01-27T11:59:00.993Z</time>
      </trkpt>
      <trkpt lat="58.77165198326111" lon="16.369596971198916">
        <ele>81.4</ele>
        <time>2025-01-27T11:59:10.214Z</time>
      </trkpt>
      <trkpt lat="58.77147898077965" lon="16.369381975382566">
        <ele>81.82</ele>
        <time>2025-01-27T11:59:19.463Z</time>
      </trkpt>
      <trkpt lat="58.7713192217052" lon="16.369397984817624">
        <ele>82.12</ele>
        <time>2025-01-27T11:59:28.733Z</time>
      </trkpt>
      <trkpt lat="58.77115996554494" lon="16.36941399425268">
        <ele>82.35</ele>
        <time>2025-01-27T11:59:38.025Z</time>
      </trkpt>
      <trkpt lat="58.77091999165714" lon="16.369510972872376">
        <ele>82.53</ele>
        <time>2025-01-27T11:59:47.349Z</time>
      </trkpt>
      <trkpt lat="58.770742462947965" lon="16.369955632835627">
        <ele>82.51</ele>
        <time>2025-01-27T11:59:56.712Z</time>
      </trkpt>
      <trkpt lat="58.77056594006717" lon="16.37039794586599">
        <ele>82.44</ele>
        <time>2025-01-27T12:00:06.114Z</time>
      </trkpt>
      <trkpt lat="58.770271986722946" lon="16.370577989146113">
        <ele>82.37</ele>
        <time>2025-01-27T12:00:15.557Z</time>
      </trkpt>
      <trkpt lat="58.77000896260142" lon="16.37065795250237">
        <ele>82.26</ele>
        <time>2025-01-27T12:00:25.036Z</time>
      </trkpt>
      <trkpt lat="58.769769072532654" lon="16.370546808466315">
        <ele>82.15</ele>
        <time>2025-01-27T12:00:34.548Z</time>
      </trkpt>
      <trkpt lat="58.76952993683517" lon="16.370435999706388">
        <ele>81.96</ele>
        <time>2025-01-27T12:00:44.093Z</time>
      </trkpt>
      <trkpt lat="58.76933455467224" lon="16.37024112045765">
        <ele>81.72</ele>
        <time>2025-01-27T12:00:53.667Z</time>
      </trkpt>
      <trkpt lat="58.7691399268806" lon="16.370046995580196">
        <ele>81.46</ele>
        <time>2025-01-27T12:01:03.271Z</time>
      </trkpt>
      <trkpt lat="58.76904118806124" lon="16.369777265936136">
        <ele>81.16</ele>
        <time>2025-01-27T12:01:12.897Z</time>
      </trkpt>
      <trkpt lat="58.76894295215607" lon="16.369508961215615">
        <ele>80.83</ele>
        <time>2025-01-27T12:01:22.546Z</time>
      </trkpt>
      <trkpt lat="58.76876198686659" lon="16.36947895400226">
        <ele>80.39</ele>
        <time>2025-01-27T12:01:32.219Z</time>
      </trkpt>
      <trkpt lat="58.7685751542449" lon="16.369525054469705">
        <ele>79.91</ele>
        <time>2025-01-27T12:01:41.918Z</time>
      </trkpt>
      <trkpt lat="58.76838899217546" lon="16.369570987299085">
        <ele>79.43</ele>
        <time>2025-01-27T12:01:51.642Z</time>
      </trkpt>
      <trkpt lat="58.76822495833039" lon="16.369826970621943">
        <ele>78.87</ele>
        <time>2025-01-27T12:02:01.394Z</time>
      </trkpt>
      <trkpt lat="58.76813896000385" lon="16.37031597085297">
        <ele>78.25</ele>
        <time>2025-01-27T12:02:11.182Z</time>
      </trkpt>
      <trkpt lat="58.76798892393708" lon="16.370384953916073">
        <ele>77.7</ele>
        <time>2025-01-27T12:02:20.990Z</time>
      </trkpt>
      <trkpt lat="58.767734030261636" lon="16.370253274217248">
        <ele>77.19</ele>
        <time>2025-01-27T12:02:30.834Z</time>
      </trkpt>
      <trkpt lat="58.767479974776506" lon="16.37012192979455">
        <ele>76.65</ele>
        <time>2025-01-27T12:02:40.713Z</time>
      </trkpt>
      <trkpt lat="58.767291717231274" lon="16.370089910924435">
        <ele>76.08</ele>
        <time>2025-01-27T12:02:50.617Z</time>
      </trkpt>
      <trkpt lat="58.76710396260023" lon="16.37005797587335">
        <ele>75.49</ele>
        <time>2025-01-27T12:03:00.546Z</time>
      </trkpt>
      <trkpt lat="58.766919979825616" lon="16.370147997513413">
        <ele>74.87</ele>
        <time>2025-01-27T12:03:10.501Z</time>
      </trkpt>
      <trkpt lat="58.76678394153714" lon="16.370213963091373">
        <ele>74.33</ele>
        <time>2025-01-27T12:03:20.474Z</time>
      </trkpt>
      <trkpt lat="58.76656592823565" lon="16.37039794586599">
        <ele>73.84</ele>
        <time>2025-01-27T12:03:30.479Z</time>
      </trkpt>
      <trkpt lat="58.766319919377565" lon="16.37065895833075">
        <ele>73.44</ele>
        <time>2025-01-27T12:03:40.522Z</time>
      </trkpt>
      <trkpt lat="58.766217995435" lon="16.370905973017216">
        <ele>73.13</ele>
        <time>2025-01-27T12:03:50.587Z</time>
      </trkpt>
      <trkpt lat="58.76615898683667" lon="16.370878983289003">
        <ele>72.84</ele>
        <time>2025-01-27T12:04:00.660Z</time>
      </trkpt>
      <trkpt lat="58.76613794825971" lon="16.370706986635923">
        <ele>72.58</ele>
        <time>2025-01-27T12:04:10.745Z</time>
      </trkpt>
      <trkpt lat="58.766144989058375" lon="16.37037799693644">
        <ele>72.37</ele>
        <time>2025-01-27T12:04:20.853Z</time>
      </trkpt>
      <trkpt lat="58.76608991995454" lon="16.369832921773195">
        <ele>72.26</ele>
        <time>2025-01-27T12:04:31.000Z</time>
      </trkpt>
      <trkpt lat="58.76599797047675" lon="16.36943494901061">
        <ele>72.19</ele>
        <time>2025-01-27T12:04:41.177Z</time>
      </trkpt>
      <trkpt lat="58.765937788411975" lon="16.369114508852363">
        <ele>72.15</ele>
        <time>2025-01-27T12:04:51.377Z</time>
      </trkpt>
      <trkpt lat="58.76587794162333" lon="16.368795996531844">
        <ele>72.2</ele>
        <time>2025-01-27T12:05:01.601Z</time>
      </trkpt>
      <trkpt lat="58.7657639477402" lon="16.368390982970595">
        <ele>72.23</ele>
        <time>2025-01-27T12:05:11.857Z</time>
      </trkpt>
      <trkpt lat="58.765762438997626" lon="16.367997704073787">
        <ele>72.31</ele>
        <time>2025-01-27T12:05:22.140Z</time>
      </trkpt>
      <trkpt lat="58.765760930255055" lon="16.36760693974793">
        <ele>72.49</ele>
        <time>2025-01-27T12:05:32.450Z</time>
      </trkpt>
      <trkpt lat="58.76563411206007" lon="16.367181725800037">
        <ele>72.74</ele>
        <time>2025-01-27T12:05:42.794Z</time>
      </trkpt>
      <trkpt lat="58.76550796441734" lon="16.366758942604065">
        <ele>73.05</ele>
        <time>2025-01-27T12:05:53.172Z</time>
      </trkpt>
      <trkpt lat="58.76529145985842" lon="16.366361053660512">
        <ele>73.39</ele>
        <time>2025-01-27T12:06:03.590Z</time>
      </trkpt>
      <trkpt lat="58.76507596112788" lon="16.365964924916625">
        <ele>73.89</ele>
        <time>2025-01-27T12:06:14.048Z</time>
      </trkpt>
      <trkpt lat="58.76487186178565" lon="16.36564959771931">
        <ele>74.53</ele>
        <time>2025-01-27T12:06:24.541Z</time>
      </trkpt>
      <trkpt lat="58.76466776244342" lon="16.365334270522">
        <ele>75.23</ele>
        <time>2025-01-27T12:06:35.069Z</time>
      </trkpt>
      <trkpt lat="58.76446492038667" lon="16.365020954981446">
        <ele>75.98</ele>
        <time>2025-01-27T12:06:45.632Z</time>
      </trkpt>
      <trkpt lat="58.76427900977433" lon="16.364670088514686">
        <ele>76.77</ele>
        <time>2025-01-27T12:06:56.230Z</time>
      </trkpt>
      <trkpt lat="58.7640939373523" lon="16.36432098224759">
        <ele>77.62</ele>
        <time>2025-01-27T12:07:06.862Z</time>
      </trkpt>
      <trkpt lat="58.76405294984579" lon="16.363926948979497">
        <ele>78.31</ele>
        <time>2025-01-27T12:07:17.522Z</time>
      </trkpt>
      <trkpt lat="58.7640109565109" lon="16.36388897895813">
        <ele>79.02</ele>
        <time>2025-01-27T12:07:28.188Z</time>
      </trkpt>
      <trkpt lat="58.76398296095431" lon="16.363448929041624">
        <ele>79.64</ele>
        <time>2025-01-27T12:07:38.885Z</time>
      </trkpt>
      <trkpt lat="58.76387793570757" lon="16.36328799650073">
        <ele>80.3</ele>
        <time>2025-01-27T12:07:49.600Z</time>
      </trkpt>
      <trkpt lat="58.76359798014164" lon="16.36316394433379">
        <ele>80.96</ele>
        <time>2025-01-27T12:08:00.354Z</time>
      </trkpt>
      <trkpt lat="58.76342095434666" lon="16.363236950710416">
        <ele>81.7</ele>
        <time>2025-01-27T12:08:11.132Z</time>
      </trkpt>
      <trkpt lat="58.763252729550004" lon="16.363253463059664">
        <ele>82.41</ele>
        <time>2025-01-27T12:08:21.932Z</time>
      </trkpt>
      <trkpt lat="58.76308492384851" lon="16.36326997540891">
        <ele>83.09</ele>
        <time>2025-01-27T12:08:32.755Z</time>
      </trkpt>
      <trkpt lat="58.76294461078942" lon="16.363548170775175">
        <ele>83.85</ele>
        <time>2025-01-27T12:08:43.605Z</time>
      </trkpt>
      <trkpt lat="58.76280496828258" lon="16.3638249412179">
        <ele>84.56</ele>
        <time>2025-01-27T12:08:54.481Z</time>
      </trkpt>
      <trkpt lat="58.76256499439478" lon="16.363813960924745">
        <ele>85.19</ele>
        <time>2025-01-27T12:09:05.390Z</time>
      </trkpt>
      <trkpt lat="58.76242292113602" lon="16.363685969263315">
        <ele>85.83</ele>
        <time>2025-01-27T12:09:16.319Z</time>
      </trkpt>
      <trkpt lat="58.762280931696296" lon="16.363237956538796">
        <ele>86.5</ele>
        <time>2025-01-27T12:09:27.285Z</time>
      </trkpt>
      <trkpt lat="58.762212954461575" lon="16.363152964040637">
        <ele>87.23</ele>
        <time>2025-01-27T12:09:38.262Z</time>
      </trkpt>
      <trkpt lat="58.76209191977978" lon="16.362767983227968">
        <ele>88.02</ele>
        <time>2025-01-27T12:09:49.270Z</time>
      </trkpt>
      <trkpt lat="58.7619299814105" lon="16.362488949671388">
        <ele>88.82</ele>
        <time>2025-01-27T12:10:00.307Z</time>
      </trkpt>
      <trkpt lat="58.76179293729365" lon="16.362389959394932">
        <ele>89.59</ele>
        <time>2025-01-27T12:10:11.364Z</time>
      </trkpt>
      <trkpt lat="58.761641727760434" lon="16.362219974398613">
        <ele>90.34</ele>
        <time>2025-01-27T12:10:22.444Z</time>
      </trkpt>
      <trkpt lat="58.7616416439414" lon="16.36221989057958">
        <ele>91.68</ele>
        <time>2025-01-27T12:10:33.524Z</time>
      </trkpt>
      <trkpt lat="58.76164097338915" lon="16.362219136208296">
        <ele>92.35</ele>
        <time>2025-01-27T12:10:44.604Z</time>
      </trkpt>
      <trkpt lat="58.761640805751085" lon="16.362218968570232">
        <ele>93.01</ele>
        <time>2025-01-27T12:10:55.684Z</time>
      </trkpt>
      <trkpt lat="58.761639799922705" lon="16.36221779510379">
        <ele>93.67</ele>
        <time>2025-01-27T12:11:06.764Z</time>
      </trkpt>
      <trkpt lat="58.76163996756077" lon="16.362217962741852">
        <ele>94.32</ele>
        <time>2025-01-27T12:11:17.844Z</time>
      </trkpt>
      <trkpt lat="58.76142513938248" lon="16.36219390667975">
        <ele>95.07</ele>
        <time>2025-01-27T12:11:28.953Z</time>
      </trkpt>
      <trkpt lat="58.76121098175645" lon="16.36216993443668">
        <ele>95.79</ele>
        <time>2025-01-27T12:11:40.091Z</time>
      </trkpt>
      <trkpt lat="58.76106295734644" lon="16.36206197552383">
        <ele>96.39</ele>
        <time>2025-01-27T12:11:51.250Z</time>
      </trkpt>
      <trkpt lat="58.760751988738775" lon="16.36200095526874">
        <ele>96.99</ele>
        <time>2025-01-27T12:12:02.451Z</time>
      </trkpt>
      <trkpt lat="58.76054998487234" lon="16.361902970820665">
        <ele>97.58</ele>
        <time>2025-01-27T12:12:13.680Z</time>
      </trkpt>
      <trkpt lat="58.760282937437296" lon="16.361881932243705">
        <ele>98.23</ele>
        <time>2025-01-27T12:12:24.944Z</time>
      </trkpt>
      <trkpt lat="58.76006961800158" lon="16.36189098469913">
        <ele>98.81</ele>
        <time>2025-01-27T12:12:36.237Z</time>
      </trkpt>
      <trkpt lat="58.75985696911812" lon="16.361899953335524">
        <ele>99.37</ele>
        <time>2025-01-27T12:12:47.558Z</time>
      </trkpt>
      <trkpt lat="58.75974431633949" lon="16.36236095800996">
        <ele>100.04</ele>
        <time>2025-01-27T12:12:58.915Z</time>
      </trkpt>
      <trkpt lat="58.75963166356087" lon="16.362822046503425">
        <ele>100.71</ele>
        <time>2025-01-27T12:13:10.307Z</time>
      </trkpt>
      <trkpt lat="58.75951993279159" lon="16.363278944045305">
        <ele>101.32</ele>
        <time>2025-01-27T12:13:21.734Z</time>
      </trkpt>
      <trkpt lat="58.75938196666539" lon="16.36337399482727">
        <ele>101.71</ele>
        <time>2025-01-27T12:13:33.181Z</time>
      </trkpt>
      <trkpt lat="58.75923218205571" lon="16.363556804135442">
        <ele>102.06</ele>
        <time>2025-01-27T12:13:44.651Z</time>
      </trkpt>
      <trkpt lat="58.75908298417926" lon="16.36373894289136">
        <ele>102.34</ele>
        <time>2025-01-27T12:13:56.145Z</time>
      </trkpt>
      <trkpt lat="58.75879095867276" lon="16.363874981179833">
        <ele>102.55</ele>
        <time>2025-01-27T12:14:07.679Z</time>
      </trkpt>
      <trkpt lat="58.75869314186275" lon="16.36421545408666">
        <ele>102.67</ele>
        <time>2025-01-27T12:14:19.240Z</time>
      </trkpt>
      <trkpt lat="58.75859599560499" lon="16.36455399915576">
        <ele>102.73</ele>
        <time>2025-01-27T12:14:30.828Z</time>
      </trkpt>
      <trkpt lat="58.75841159373522" lon="16.364806462079287">
        <ele>102.71</ele>
        <time>2025-01-27T12:14:42.446Z</time>
      </trkpt>
      <trkpt lat="58.75822794623673" lon="16.365057919174433">
        <ele>102.65</ele>
        <time>2025-01-27T12:14:54.094Z</time>
      </trkpt>
      <trkpt lat="58.75807397067547" lon="16.36558396741748">
        <ele>102.46</ele>
        <time>2025-01-27T12:15:05.784Z</time>
      </trkpt>
      <trkpt lat="58.75787699595094" lon="16.365942796692252">
        <ele>102.23</ele>
        <time>2025-01-27T12:15:17.511Z</time>
      </trkpt>
      <trkpt lat="58.757680943235755" lon="16.36629994958639">
        <ele>101.87</ele>
        <time>2025-01-27T12:15:29.274Z</time>
      </trkpt>
      <trkpt lat="58.75754691660404" lon="16.366578983142972">
        <ele>101.44</ele>
        <time>2025-01-27T12:15:41.063Z</time>
      </trkpt>
      <trkpt lat="58.75745094381273" lon="16.36694099754095">
        <ele>100.87</ele>
        <time>2025-01-27T12:15:52.880Z</time>
      </trkpt>
      <trkpt lat="58.757244162261486" lon="16.36723226867616">
        <ele>100.31</ele>
        <time>2025-01-27T12:16:04.732Z</time>
      </trkpt>
      <trkpt lat="58.757037380710244" lon="16.367523539811373">
        <ele>99.63</ele>
        <time>2025-01-27T12:16:16.618Z</time>
      </trkpt>
      <trkpt lat="58.75683194026351" lon="16.367812966927886">
        <ele>98.86</ele>
        <time>2025-01-27T12:16:28.538Z</time>
      </trkpt>
      <trkpt lat="58.75659506767988" lon="16.368003822863102">
        <ele>98.04</ele>
        <time>2025-01-27T12:16:40.492Z</time>
      </trkpt>
      <trkpt lat="58.75635894946754" lon="16.368193924427032">
        <ele>97.18</ele>
        <time>2025-01-27T12:16:52.480Z</time>
      </trkpt>
      <trkpt lat="58.756185192614794" lon="16.36863313615322">
        <ele>96.34</ele>
        <time>2025-01-27T12:17:04.507Z</time>
      </trkpt>
      <trkpt lat="58.756011351943016" lon="16.369072264060378">
        <ele>95.5</ele>
        <time>2025-01-27T12:17:16.572Z</time>
      </trkpt>
      <trkpt lat="58.75583893619478" lon="16.369507955387235">
        <ele>94.72</ele>
        <time>2025-01-27T12:17:28.675Z</time>
      </trkpt>
      <trkpt lat="58.75572611577809" lon="16.370000895112753">
        <ele>93.97</ele>
        <time>2025-01-27T12:17:40.816Z</time>
      </trkpt>
      <trkpt lat="58.75561396591365" lon="16.370490984991193">
        <ele>93.06</ele>
        <time>2025-01-27T12:17:52.994Z</time>
      </trkpt>
      <trkpt lat="58.755453284829855" lon="16.370848892256618">
        <ele>92.04</ele>
        <time>2025-01-27T12:18:05.205Z</time>
      </trkpt>
      <trkpt lat="58.75529268756509" lon="16.371206799522042">
        <ele>90.9</ele>
        <time>2025-01-27T12:18:17.448Z</time>
      </trkpt>
      <trkpt lat="58.75513200648129" lon="16.371564706787467">
        <ele>89.73</ele>
        <time>2025-01-27T12:18:29.724Z</time>
      </trkpt>
      <trkpt lat="58.754972917959094" lon="16.371918926015496">
        <ele>88.5</ele>
        <time>2025-01-27T12:18:42.033Z</time>
      </trkpt>
      <trkpt lat="58.754780972376466" lon="16.37205597013235">
        <ele>87.17</ele>
        <time>2025-01-27T12:18:54.369Z</time>
      </trkpt>
      <trkpt lat="58.75458098016679" lon="16.372068962082267">
        <ele>85.78</ele>
        <time>2025-01-27T12:19:06.732Z</time>
      </trkpt>
      <trkpt lat="58.754480984061956" lon="16.37213895097375">
        <ele>84.39</ele>
        <time>2025-01-27T12:19:19.109Z</time>
      </trkpt>
      <trkpt lat="58.7543441914022" lon="16.372307259589434">
        <ele>82.9</ele>
        <time>2025-01-27T12:19:31.508Z</time>
      </trkpt>
      <trkpt lat="58.75420798547566" lon="16.372474981471896">
        <ele>81.32</ele>
        <time>2025-01-27T12:19:43.928Z</time>
      </trkpt>
      <trkpt lat="58.75403992831707" lon="16.3728909753263">
        <ele>79.7</ele>
        <time>2025-01-27T12:19:56.385Z</time>
      </trkpt>
      <trkpt lat="58.75382694415748" lon="16.373101947829127">
        <ele>78.08</ele>
        <time>2025-01-27T12:20:08.874Z</time>
      </trkpt>
      <trkpt lat="58.75364857725799" lon="16.37334292754531">
        <ele>76.42</ele>
        <time>2025-01-27T12:20:21.392Z</time>
      </trkpt>
      <trkpt lat="58.753470964729786" lon="16.373582985252142">
        <ele>74.83</ele>
        <time>2025-01-27T12:20:33.939Z</time>
      </trkpt>
      <trkpt lat="58.75337197445333" lon="16.37377392500639">
        <ele>73.21</ele>
        <time>2025-01-27T12:20:46.505Z</time>
      </trkpt>
      <trkpt lat="58.753223111853" lon="16.374130910262465">
        <ele>71.49</ele>
        <time>2025-01-27T12:20:59.103Z</time>
      </trkpt>
      <trkpt lat="58.75307491980493" lon="16.374485967680812">
        <ele>69.86</ele>
        <time>2025-01-27T12:21:11.732Z</time>
      </trkpt>
      <trkpt lat="58.75295899808407" lon="16.37450298294425">
        <ele>68.42</ele>
        <time>2025-01-27T12:21:24.377Z</time>
      </trkpt>
      <trkpt lat="58.75279974192381" lon="16.37450449168682">
        <ele>66.99</ele>
        <time>2025-01-27T12:21:37.043Z</time>
      </trkpt>
      <trkpt lat="58.75264098867774" lon="16.37450591661036">
        <ele>65.56</ele>
        <time>2025-01-27T12:21:49.730Z</time>
      </trkpt>
      <trkpt lat="58.752375952899456" lon="16.37432998046279">
        <ele>64.25</ele>
        <time>2025-01-27T12:22:02.455Z</time>
      </trkpt>
      <trkpt lat="58.752094991505146" lon="16.374089922755957">
        <ele>63.0</ele>
        <time>2025-01-27T12:22:15.221Z</time>
      </trkpt>
      <trkpt lat="58.75195166096091" lon="16.37393468990922">
        <ele>61.76</ele>
        <time>2025-01-27T12:22:28.009Z</time>
      </trkpt>
      <trkpt lat="58.7518089171499" lon="16.373779959976673">
        <ele>60.55</ele>
        <time>2025-01-27T12:22:40.819Z</time>
      </trkpt>
      <trkpt lat="58.751627868041396" lon="16.37352271936834">
        <ele>59.35</ele>
        <time>2025-01-27T12:22:53.659Z</time>
      </trkpt>
      <trkpt lat="58.75144681893289" lon="16.373265562579036">
        <ele>58.17</ele>
        <time>2025-01-27T12:23:06.529Z</time>
      </trkpt>
      <trkpt lat="58.75126694329083" lon="16.373009998351336">
        <ele>57.02</ele>
        <time>2025-01-27T12:23:19.429Z</time>
      </trkpt>
      <trkpt lat="58.75103199854493" lon="16.37288996949792">
        <ele>56.05</ele>
        <time>2025-01-27T12:23:32.361Z</time>
      </trkpt>
      <trkpt lat="58.75102009624243" lon="16.372887203469872">
        <ele>55.23</ele>
        <time>2025-01-27T12:23:45.295Z</time>
      </trkpt>
      <trkpt lat="58.75085991807282" lon="16.37285099364817">
        <ele>54.45</ele>
        <time>2025-01-27T12:23:58.251Z</time>
      </trkpt>
      <trkpt lat="58.75082664191723" lon="16.37290363200009">
        <ele>53.79</ele>
        <time>2025-01-27T12:24:11.212Z</time>
      </trkpt>
      <trkpt lat="58.75081197358668" lon="16.372926933690906">
        <ele>53.23</ele>
        <time>2025-01-27T12:24:24.176Z</time>
      </trkpt>
      <trkpt lat="58.750802082940936" lon="16.372946547344327">
        <ele>52.77</ele>
        <time>2025-01-27T12:24:37.142Z</time>
      </trkpt>
      <trkpt lat="58.7507779430598" lon="16.37299499474466">
        <ele>52.39</ele>
        <time>2025-01-27T12:24:50.112Z</time>
      </trkpt>
      <trkpt lat="58.75076796859503" lon="16.373016955330968">
        <ele>52.12</ele>
        <time>2025-01-27T12:25:03.085Z</time>
      </trkpt>
      <trkpt lat="58.75075598247349" lon="16.37321493588388">
        <ele>51.96</ele>
        <time>2025-01-27T12:25:16.071Z</time>
      </trkpt>
      <trkpt lat="58.75068599358201" lon="16.373444935306907">
        <ele>51.84</ele>
        <time>2025-01-27T12:25:29.076Z</time>
      </trkpt>
      <trkpt lat="58.750677946954966" lon="16.373550966382027">
        <ele>51.84</ele>
        <time>2025-01-27T12:25:42.088Z</time>
      </trkpt>
      <trkpt lat="58.7507279869169" lon="16.37396696023643">
        <ele>52.0</ele>
        <time>2025-01-27T12:25:55.130Z</time>
      </trkpt>
      <trkpt lat="58.750697979703546" lon="16.374170975759625">
        <ele>52.16</ele>
        <time>2025-01-27T12:26:08.187Z</time>
      </trkpt>
      <trkpt lat="58.75068699941039" lon="16.37437197379768">
        <ele>52.43</ele>
        <time>2025-01-27T12:26:21.258Z</time>
      </trkpt>
      <trkpt lat="58.75070099718869" lon="16.374556962400675">
        <ele>52.81</ele>
        <time>2025-01-27T12:26:34.342Z</time>
      </trkpt>
      <trkpt lat="58.75075095333159" lon="16.374860974028707">
        <ele>53.31</ele>
        <time>2025-01-27T12:26:47.448Z</time>
      </trkpt>
      <trkpt lat="58.75074994750321" lon="16.374962981790304">
        <ele>53.85</ele>
        <time>2025-01-27T12:27:00.561Z</time>
      </trkpt>
      <trkpt lat="58.750738967210054" lon="16.37505996041">
        <ele>54.46</ele>
        <time>2025-01-27T12:27:13.681Z</time>
      </trkpt>
      <trkpt lat="58.750780960544944" lon="16.37519298121333">
        <ele>55.18</ele>
        <time>2025-01-27T12:27:26.812Z</time>
      </trkpt>
      <trkpt lat="58.750867964699864" lon="16.375589948147535">
        <ele>55.99</ele>
        <time>2025-01-27T12:27:39.973Z</time>
      </trkpt>
      <trkpt lat="58.750867964699864" lon="16.375781977549195">
        <ele>56.81</ele>
        <time>2025-01-27T12:27:53.147Z</time>
      </trkpt>
      <trkpt lat="58.75085597857833" lon="16.375892953947186">
        <ele>57.69</ele>
        <time>2025-01-27T12:28:06.329Z</time>
      </trkpt>
      <trkpt lat="58.75081691890955" lon="16.37596696615219">
        <ele>58.62</ele>
        <time>2025-01-27T12:28:19.518Z</time>
      </trkpt>
      <trkpt lat="58.75070594251156" lon="16.376175926998258">
        <ele>59.6</ele>
        <time>2025-01-27T12:28:32.728Z</time>
      </trkpt>
      <trkpt lat="58.75055892392993" lon="16.376424953341484">
        <ele>60.65</ele>
        <time>2025-01-27T12:28:45.964Z</time>
      </trkpt>
      <trkpt lat="58.75027997419238" lon="16.376701975241303">
        <ele>61.71</ele>
        <time>2025-01-27T12:28:59.242Z</time>
      </trkpt>
      <trkpt lat="58.75022096559405" lon="16.377023924142122">
        <ele>62.78</ele>
        <time>2025-01-27T12:29:12.544Z</time>
      </trkpt>
      <trkpt lat="58.75008593313396" lon="16.377283930778503">
        <ele>64.23</ele>
        <time>2025-01-27T12:29:25.871Z</time>
      </trkpt>
      <trkpt lat="58.75001795589924" lon="16.377348974347115">
        <ele>65.32</ele>
        <time>2025-01-27T12:29:39.208Z</time>
      </trkpt>
      <trkpt lat="58.749728947877884" lon="16.377538992092013">
        <ele>66.46</ele>
        <time>2025-01-27T12:29:52.586Z</time>
      </trkpt>
      <trkpt lat="58.749493919312954" lon="16.3776449393481">
        <ele>67.53</ele>
        <time>2025-01-27T12:30:05.997Z</time>
      </trkpt>
      <trkpt lat="58.74941697344184" lon="16.377762956544757">
        <ele>68.5</ele>
        <time>2025-01-27T12:30:19.421Z</time>
      </trkpt>
      <trkpt lat="58.74935897067189" lon="16.37787695042789">
        <ele>69.38</ele>
        <time>2025-01-27T12:30:32.856Z</time>
      </trkpt>
      <trkpt lat="58.74915596097708" lon="16.37806797400117">
        <ele>70.25</ele>
        <time>2025-01-27T12:30:46.321Z</time>
      </trkpt>
      <trkpt lat="58.74894892796874" lon="16.37815992347896">
        <ele>71.01</ele>
        <time>2025-01-27T12:30:59.814Z</time>
      </trkpt>
      <trkpt lat="58.748733596876264" lon="16.378041235730052">
        <ele>71.61</ele>
        <time>2025-01-27T12:31:13.337Z</time>
      </trkpt>
      <trkpt lat="58.74851893633604" lon="16.3779229670763">
        <ele>72.12</ele>
        <time>2025-01-27T12:31:26.890Z</time>
      </trkpt>
      <trkpt lat="58.74841399490833" lon="16.377838980406523">
        <ele>72.56</ele>
        <time>2025-01-27T12:31:40.458Z</time>
      </trkpt>
      <trkpt lat="58.74829798936844" lon="16.377864964306355">
        <ele>72.94</ele>
        <time>2025-01-27T12:31:54.042Z</time>
      </trkpt>
      <trkpt lat="58.74818994663656" lon="16.378144919872284">
        <ele>73.23</ele>
        <time>2025-01-27T12:32:07.650Z</time>
      </trkpt>
      <trkpt lat="58.74814694747329" lon="16.378164952620864">
        <ele>73.44</ele>
        <time>2025-01-27T12:32:21.264Z</time>
      </trkpt>
      <trkpt lat="58.74802993610501" lon="16.378120947629213">
        <ele>73.56</ele>
        <time>2025-01-27T12:32:34.894Z</time>
      </trkpt>
      <trkpt lat="58.74787797220051" lon="16.377848954871297">
        <ele>73.58</ele>
        <time>2025-01-27T12:32:48.552Z</time>
      </trkpt>
      <trkpt lat="58.74772299081087" lon="16.377693973481655">
        <ele>73.56</ele>
        <time>2025-01-27T12:33:02.233Z</time>
      </trkpt>
      <trkpt lat="58.74765794724226" lon="16.37768399901688">
        <ele>73.51</ele>
        <time>2025-01-27T12:33:15.923Z</time>
      </trkpt>
      <trkpt lat="58.74738193117082" lon="16.377713922411203">
        <ele>73.45</ele>
        <time>2025-01-27T12:33:29.650Z</time>
      </trkpt>
      <trkpt lat="58.7472949270159" lon="16.377700930461287">
        <ele>73.34</ele>
        <time>2025-01-27T12:33:43.388Z</time>
      </trkpt>
      <trkpt lat="58.7471479922533" lon="16.377475960180163">
        <ele>73.19</ele>
        <time>2025-01-27T12:33:57.152Z</time>
      </trkpt>
      <trkpt lat="58.74708395451307" lon="16.377393985167146">
        <ele>72.99</ele>
        <time>2025-01-27T12:34:10.926Z</time>
      </trkpt>
      <trkpt lat="58.74700399115682" lon="16.377371940761805">
        <ele>72.79</ele>
        <time>2025-01-27T12:34:24.711Z</time>
      </trkpt>
      <trkpt lat="58.7468979600817" lon="16.37727295048535">
        <ele>72.56</ele>
        <time>2025-01-27T12:34:38.511Z</time>
      </trkpt>
      <trkpt lat="58.746764939278364" lon="16.377052925527096">
        <ele>72.29</ele>
        <time>2025-01-27T12:34:52.335Z</time>
      </trkpt>
      <trkpt lat="58.74669495038688" lon="16.37669099494815">
        <ele>72.07</ele>
        <time>2025-01-27T12:35:06.186Z</time>
      </trkpt>
      <trkpt lat="58.7467129714787" lon="16.37643593363464">
        <ele>71.85</ele>
        <time>2025-01-27T12:35:20.055Z</time>
      </trkpt>
      <trkpt lat="58.74660794623196" lon="16.37611993588507">
        <ele>71.71</ele>
        <time>2025-01-27T12:35:33.950Z</time>
      </trkpt>
      <trkpt lat="58.746506944298744" lon="16.375999990850687">
        <ele>71.58</ele>
        <time>2025-01-27T12:35:47.860Z</time>
      </trkpt>
      <trkpt lat="58.74647794291377" lon="16.37596394866705">
        <ele>71.44</ele>
        <time>2025-01-27T12:36:01.775Z</time>
      </trkpt>
      <trkpt lat="58.746336959302425" lon="16.375907957553864">
        <ele>71.32</ele>
        <time>2025-01-27T12:36:15.709Z</time>
      </trkpt>
      <trkpt lat="58.74617896042764" lon="16.375937964767218">
        <ele>71.23</ele>
        <time>2025-01-27T12:36:29.665Z</time>
      </trkpt>
      <trkpt lat="58.74607091769576" lon="16.375847943127155">
        <ele>71.14</ele>
        <time>2025-01-27T12:36:43.636Z</time>
      </trkpt>
      <trkpt lat="58.74594594351947" lon="16.375871999189258">
        <ele>71.1</ele>
        <time>2025-01-27T12:36:57.624Z</time>
      </trkpt>
      <trkpt lat="58.74582599848509" lon="16.375798992812634">
        <ele>71.11</ele>
        <time>2025-01-27T12:37:11.629Z</time>
      </trkpt>
      <trkpt lat="58.745667999610305" lon="16.375826988369226">
        <ele>71.17</ele>
        <time>2025-01-27T12:37:25.655Z</time>
      </trkpt>
      <trkpt lat="58.74552793800831" lon="16.375884991139174">
        <ele>71.28</ele>
        <time>2025-01-27T12:37:39.700Z</time>
      </trkpt>
      <trkpt lat="58.74541897326708" lon="16.375981969758868">
        <ele>71.44</ele>
        <time>2025-01-27T12:37:53.761Z</time>
      </trkpt>
      <trkpt lat="58.74537798576057" lon="16.376105938106775">
        <ele>71.63</ele>
        <time>2025-01-27T12:38:07.833Z</time>
      </trkpt>
      <trkpt lat="58.745340183377266" lon="16.376152709126472">
        <ele>71.89</ele>
        <time>2025-01-27T12:38:21.911Z</time>
      </trkpt>
      <trkpt lat="58.74520297162235" lon="16.376322945579886">
        <ele>72.25</ele>
        <time>2025-01-27T12:38:36.010Z</time>
      </trkpt>
      <trkpt lat="58.7450569588691" lon="16.376295955851674">
        <ele>72.65</ele>
        <time>2025-01-27T12:38:50.129Z</time>
      </trkpt>
      <trkpt lat="58.745024939998984" lon="16.376293944194913">
        <ele>73.04</ele>
        <time>2025-01-27T12:39:04.252Z</time>
      </trkpt>
      <trkpt lat="58.74501697719097" lon="16.376292938366532">
        <ele>73.47</ele>
        <time>2025-01-27T12:39:18.376Z</time>
      </trkpt>
      <trkpt lat="58.74481899663806" lon="16.3759889267385">
        <ele>73.99</ele>
        <time>2025-01-27T12:39:32.534Z</time>
      </trkpt>
      <trkpt lat="58.74473098665476" lon="16.375998985022306">
        <ele>74.49</ele>
        <time>2025-01-27T12:39:46.704Z</time>
      </trkpt>
      <trkpt lat="58.74453795142472" lon="16.376312971115112">
        <ele>74.99</ele>
        <time>2025-01-27T12:40:00.908Z</time>
      </trkpt>
      <trkpt lat="58.744402918964624" lon="16.376471975818276">
        <ele>75.55</ele>
        <time>2025-01-27T12:40:15.133Z</time>
      </trkpt>
      <trkpt lat="58.7442799564451" lon="16.37645797803998">
        <ele>76.12</ele>
        <time>2025-01-27T12:40:29.374Z</time>
      </trkpt>
      <trkpt lat="58.744147941470146" lon="16.376553950831294">
        <ele>76.71</ele>
        <time>2025-01-27T12:40:43.634Z</time>
      </trkpt>
      <trkpt lat="58.74393696896732" lon="16.37676198966801">
        <ele>77.33</ele>
        <time>2025-01-27T12:40:57.926Z</time>
      </trkpt>
      <trkpt lat="58.74364955350757" lon="16.376766432076693">
        <ele>78.11</ele>
        <time>2025-01-27T12:41:12.256Z</time>
      </trkpt>
      <trkpt lat="58.74336297623813" lon="16.376770958304405">
        <ele>78.79</ele>
        <time>2025-01-27T12:41:26.625Z</time>
      </trkpt>
      <trkpt lat="58.743086038157344" lon="16.37663575820625">
        <ele>79.39</ele>
        <time>2025-01-27T12:41:41.032Z</time>
      </trkpt>
      <trkpt lat="58.74280993826687" lon="16.37650097720325">
        <ele>79.94</ele>
        <time>2025-01-27T12:41:55.477Z</time>
      </trkpt>
      <trkpt lat="58.74266317114234" lon="16.376347672194242">
        <ele>80.44</ele>
        <time>2025-01-27T12:42:09.944Z</time>
      </trkpt>
      <trkpt lat="58.74251699075103" lon="16.376194953918457">
        <ele>80.92</ele>
        <time>2025-01-27T12:42:24.433Z</time>
      </trkpt>
      <trkpt lat="58.74223795719445" lon="16.375955985859036">
        <ele>81.36</ele>
        <time>2025-01-27T12:42:38.963Z</time>
      </trkpt>
      <trkpt lat="58.74208473600447" lon="16.375859761610627">
        <ele>81.77</ele>
        <time>2025-01-27T12:42:53.515Z</time>
      </trkpt>
      <trkpt lat="58.741931933909655" lon="16.375763956457376">
        <ele>82.11</ele>
        <time>2025-01-27T12:43:08.088Z</time>
      </trkpt>
      <trkpt lat="58.74167896807194" lon="16.375539992004633">
        <ele>82.36</ele>
        <time>2025-01-27T12:43:22.699Z</time>
      </trkpt>
      <trkpt lat="58.74154192395508" lon="16.375667983666062">
        <ele>82.6</ele>
        <time>2025-01-27T12:43:37.330Z</time>
      </trkpt>
      <trkpt lat="58.74139364808798" lon="16.375881889835">
        <ele>82.8</ele>
        <time>2025-01-27T12:43:51.986Z</time>
      </trkpt>
      <trkpt lat="58.741245958954096" lon="16.37609495781362">
        <ele>82.98</ele>
        <time>2025-01-27T12:44:06.666Z</time>
      </trkpt>
      <trkpt lat="58.74108896590769" lon="16.376361921429634">
        <ele>83.12</ele>
        <time>2025-01-27T12:44:21.374Z</time>
      </trkpt>
      <trkpt lat="58.740942953154445" lon="16.376605918630958">
        <ele>83.29</ele>
        <time>2025-01-27T12:44:36.108Z</time>
      </trkpt>
      <trkpt lat="58.74083993956447" lon="16.376702981069684">
        <ele>83.46</ele>
        <time>2025-01-27T12:44:50.858Z</time>
      </trkpt>
      <trkpt lat="58.74069795012474" lon="16.37672091834247">
        <ele>83.59</ele>
        <time>2025-01-27T12:45:05.627Z</time>
      </trkpt>
      <trkpt lat="58.74061597511172" lon="16.376657970249653">
        <ele>83.66</ele>
        <time>2025-01-27T12:45:20.407Z</time>
      </trkpt>
      <trkpt lat="58.74053659848869" lon="16.376496953889728">
        <ele>83.69</ele>
        <time>2025-01-27T12:45:35.203Z</time>
      </trkpt>
      <trkpt lat="58.74053659848869" lon="16.376496870070696">
        <ele>83.73</ele>
        <time>2025-01-27T12:45:49.999Z</time>
      </trkpt>
      <trkpt lat="58.74053651466966" lon="16.3764966186136">
        <ele>83.75</ele>
        <time>2025-01-27T12:46:04.795Z</time>
      </trkpt>
      <trkpt lat="58.74053601175547" lon="16.37649561278522">
        <ele>83.76</ele>
        <time>2025-01-27T12:46:19.591Z</time>
      </trkpt>
      <trkpt lat="58.740535927936435" lon="16.376495361328125">
        <ele>83.75</ele>
        <time>2025-01-27T12:46:34.387Z</time>
      </trkpt>
      <trkpt lat="58.740535927936435" lon="16.376495277509093">
        <ele>83.73</ele>
        <time>2025-01-27T12:46:49.183Z</time>
      </trkpt>
      <trkpt lat="58.740535927936435" lon="16.37649519369006">
        <ele>83.69</ele>
        <time>2025-01-27T12:47:03.979Z</time>
      </trkpt>
      <trkpt lat="58.7405358441174" lon="16.376494942232966">
        <ele>83.63</ele>
        <time>2025-01-27T12:47:18.775Z</time>
      </trkpt>
      <trkpt lat="58.7405358441174" lon="16.376494858413935">
        <ele>83.56</ele>
        <time>2025-01-27T12:47:33.571Z</time>
      </trkpt>
      <trkpt lat="58.74053483828902" lon="16.376492762938142">
        <ele>83.48</ele>
        <time>2025-01-27T12:47:48.367Z</time>
      </trkpt>
      <trkpt lat="58.740534922108054" lon="16.376492930576205">
        <ele>83.37</ele>
        <time>2025-01-27T12:48:03.163Z</time>
      </trkpt>
      <trkpt lat="58.74029092490673" lon="16.37635094113648">
        <ele>83.28</ele>
        <time>2025-01-27T12:48:17.993Z</time>
      </trkpt>
      <trkpt lat="58.74005698598921" lon="16.376230996102095">
        <ele>83.13</ele>
        <time>2025-01-27T12:48:32.856Z</time>
      </trkpt>
      <trkpt lat="58.73996595852077" lon="16.376216998323798">
        <ele>82.97</ele>
        <time>2025-01-27T12:48:47.731Z</time>
      </trkpt>
      <trkpt lat="58.73983696103096" lon="16.37609395198524">
        <ele>82.75</ele>
        <time>2025-01-27T12:49:02.625Z</time>
      </trkpt>
      <trkpt lat="58.73968994244933" lon="16.37600996531546">
        <ele>82.54</ele>
        <time>2025-01-27T12:49:17.540Z</time>
      </trkpt>
      <trkpt lat="58.739503948017955" lon="16.37605397030711">
        <ele>82.34</ele>
        <time>2025-01-27T12:49:32.480Z</time>
      </trkpt>
      <trkpt lat="58.73936095274985" lon="16.375905945897102">
        <ele>82.07</ele>
        <time>2025-01-27T12:49:47.441Z</time>
      </trkpt>
      <trkpt lat="58.739268919453025" lon="16.375760938972235">
        <ele>81.75</ele>
        <time>2025-01-27T12:50:02.418Z</time>
      </trkpt>
      <trkpt lat="58.739160960540175" lon="16.37572699226439">
        <ele>81.4</ele>
        <time>2025-01-27T12:50:17.410Z</time>
      </trkpt>
      <trkpt lat="58.739004135131836" lon="16.375920865684748">
        <ele>80.99</ele>
        <time>2025-01-27T12:50:32.427Z</time>
      </trkpt>
      <trkpt lat="58.73884798027575" lon="16.37611398473382">
        <ele>80.55</ele>
        <time>2025-01-27T12:50:47.469Z</time>
      </trkpt>
      <trkpt lat="58.7386501673609" lon="16.376249687746167">
        <ele>80.02</ele>
        <time>2025-01-27T12:51:02.539Z</time>
      </trkpt>
      <trkpt lat="58.738452941179276" lon="16.376384971663356">
        <ele>79.51</ele>
        <time>2025-01-27T12:51:17.637Z</time>
      </trkpt>
      <trkpt lat="58.73825462535024" lon="16.376400981098413">
        <ele>79.0</ele>
        <time>2025-01-27T12:51:32.761Z</time>
      </trkpt>
      <trkpt lat="58.73805698007345" lon="16.37641699053347">
        <ele>78.5</ele>
        <time>2025-01-27T12:51:47.912Z</time>
      </trkpt>
      <trkpt lat="58.73802898451686" lon="16.37626796029508">
        <ele>78.04</ele>
        <time>2025-01-27T12:52:03.074Z</time>
      </trkpt>
      <trkpt lat="58.7379389628768" lon="16.375993955880404">
        <ele>77.57</ele>
        <time>2025-01-27T12:52:18.258Z</time>
      </trkpt>
      <trkpt lat="58.73785296455026" lon="16.375996973365545">
        <ele>77.07</ele>
        <time>2025-01-27T12:52:33.454Z</time>
      </trkpt>
      <trkpt lat="58.737817928195" lon="16.376019939780235">
        <ele>76.56</ele>
        <time>2025-01-27T12:52:48.655Z</time>
      </trkpt>
      <trkpt lat="58.73760594986379" lon="16.375848948955536">
        <ele>76.12</ele>
        <time>2025-01-27T12:53:03.886Z</time>
      </trkpt>
      <trkpt lat="58.73745993711054" lon="16.375890942290425">
        <ele>75.58</ele>
        <time>2025-01-27T12:53:19.137Z</time>
      </trkpt>
      <trkpt lat="58.73719892464578" lon="16.376067968085408">
        <ele>74.96</ele>
        <time>2025-01-27T12:53:34.425Z</time>
      </trkpt>
      <trkpt lat="58.73709096573293" lon="16.37609696947038">
        <ele>74.41</ele>
        <time>2025-01-27T12:53:49.728Z</time>
      </trkpt>
      <trkpt lat="58.73698392882943" lon="16.376012982800603">
        <ele>73.86</ele>
        <time>2025-01-27T12:54:05.046Z</time>
      </trkpt>
      <trkpt lat="58.73682693578303" lon="16.375762950628996">
        <ele>73.27</ele>
        <time>2025-01-27T12:54:20.391Z</time>
      </trkpt>
      <trkpt lat="58.73674697242677" lon="16.375501938164234">
        <ele>72.7</ele>
        <time>2025-01-27T12:54:35.757Z</time>
      </trkpt>
      <trkpt lat="58.73658796772361" lon="16.37529892846942">
        <ele>72.1</ele>
        <time>2025-01-27T12:54:51.149Z</time>
      </trkpt>
      <trkpt lat="58.73633944429457" lon="16.37498284690082">
        <ele>71.51</ele>
        <time>2025-01-27T12:55:06.581Z</time>
      </trkpt>
      <trkpt lat="58.736091926693916" lon="16.374667938798666">
        <ele>70.94</ele>
        <time>2025-01-27T12:55:22.052Z</time>
      </trkpt>
      <trkpt lat="58.7358889169991" lon="16.374583952128887">
        <ele>70.4</ele>
        <time>2025-01-27T12:55:37.551Z</time>
      </trkpt>
      <trkpt lat="58.735723961144686" lon="16.374624939635396">
        <ele>69.96</ele>
        <time>2025-01-27T12:55:53.072Z</time>
      </trkpt>
      <trkpt lat="58.735569985583425" lon="16.374687971547246">
        <ele>69.55</ele>
        <time>2025-01-27T12:56:08.614Z</time>
      </trkpt>
      <trkpt lat="58.73543092980981" lon="16.374859968200326">
        <ele>69.15</ele>
        <time>2025-01-27T12:56:24.179Z</time>
      </trkpt>
      <trkpt lat="58.735290952026844" lon="16.37480892241001">
        <ele>68.74</ele>
        <time>2025-01-27T12:56:39.763Z</time>
      </trkpt>
      <trkpt lat="58.73511493206024" lon="16.374836917966604">
        <ele>68.29</ele>
        <time>2025-01-27T12:56:55.370Z</time>
      </trkpt>
      <trkpt lat="58.73499565757811" lon="16.37463449500501">
        <ele>67.94</ele>
        <time>2025-01-27T12:57:10.998Z</time>
      </trkpt>
      <trkpt lat="58.7348769698292" lon="16.374432994052768">
        <ele>67.67</ele>
        <time>2025-01-27T12:57:26.648Z</time>
      </trkpt>
      <trkpt lat="58.734781919047236" lon="16.374313971027732">
        <ele>67.5</ele>
        <time>2025-01-27T12:57:42.313Z</time>
      </trkpt>
      <trkpt lat="58.73466096818447" lon="16.37446291744709">
        <ele>67.39</ele>
        <time>2025-01-27T12:57:57.997Z</time>
      </trkpt>
      <trkpt lat="58.73457295820117" lon="16.374688977375627">
        <ele>67.36</ele>
        <time>2025-01-27T12:58:13.701Z</time>
      </trkpt>
      <trkpt lat="58.73455099761486" lon="16.374745974317193">
        <ele>67.46</ele>
        <time>2025-01-27T12:58:29.410Z</time>
      </trkpt>
      <trkpt lat="58.73446592129767" lon="16.375118969008327">
        <ele>67.59</ele>
        <time>2025-01-27T12:58:45.147Z</time>
      </trkpt>
      <trkpt lat="58.73431496322155" lon="16.37551493011415">
        <ele>67.89</ele>
        <time>2025-01-27T12:59:00.918Z</time>
      </trkpt>
      <trkpt lat="58.73401497490704" lon="16.375592965632677">
        <ele>68.28</ele>
        <time>2025-01-27T12:59:16.729Z</time>
      </trkpt>
      <trkpt lat="58.73378396965563" lon="16.375668989494443">
        <ele>68.87</ele>
        <time>2025-01-27T12:59:32.572Z</time>
      </trkpt>
      <trkpt lat="58.73362697660923" lon="16.37575096450746">
        <ele>69.57</ele>
        <time>2025-01-27T12:59:48.437Z</time>
      </trkpt>
      <trkpt lat="58.73341994360089" lon="16.37616192921996">
        <ele>70.41</ele>
        <time>2025-01-27T13:00:04.341Z</time>
      </trkpt>
      <trkpt lat="58.733318941667676" lon="16.376577923074365">
        <ele>71.3</ele>
        <time>2025-01-27T13:00:20.277Z</time>
      </trkpt>
      <trkpt lat="58.733200673013926" lon="16.37678042985499">
        <ele>72.39</ele>
        <time>2025-01-27T13:00:36.234Z</time>
      </trkpt>
      <trkpt lat="58.7330829910934" lon="16.376981930807233">
        <ele>73.57</ele>
        <time>2025-01-27T13:00:52.212Z</time>
      </trkpt>
      <trkpt lat="58.732899678871036" lon="16.37699450366199">
        <ele>74.86</ele>
        <time>2025-01-27T13:01:08.215Z</time>
      </trkpt>
      <trkpt lat="58.732716953381896" lon="16.377006992697716">
        <ele>76.23</ele>
        <time>2025-01-27T13:01:24.242Z</time>
      </trkpt>
      <trkpt lat="58.73241897672415" lon="16.37695192359388">
        <ele>77.73</ele>
        <time>2025-01-27T13:01:40.309Z</time>
      </trkpt>
      <trkpt lat="58.732153940945864" lon="16.376676997169852">
        <ele>79.26</ele>
        <time>2025-01-27T13:01:56.417Z</time>
      </trkpt>
      <trkpt lat="58.73210130259395" lon="16.376972878351808">
        <ele>80.74</ele>
        <time>2025-01-27T13:02:12.546Z</time>
      </trkpt>
      <trkpt lat="58.732048999518156" lon="16.377266999334097">
        <ele>82.29</ele>
        <time>2025-01-27T13:02:28.697Z</time>
      </trkpt>
      <trkpt lat="58.73190307058394" lon="16.37764192186296">
        <ele>83.9</ele>
        <time>2025-01-27T13:02:44.881Z</time>
      </trkpt>
      <trkpt lat="58.73175797984004" lon="16.378014916554093">
        <ele>85.38</ele>
        <time>2025-01-27T13:03:01.097Z</time>
      </trkpt>
      <trkpt lat="58.7315459176898" lon="16.37830794788897">
        <ele>86.78</ele>
        <time>2025-01-27T13:03:17.348Z</time>
      </trkpt>
      <trkpt lat="58.73149696737528" lon="16.37867398560047">
        <ele>87.97</ele>
        <time>2025-01-27T13:03:33.625Z</time>
      </trkpt>
      <trkpt lat="58.73141096904874" lon="16.37873198837042">
        <ele>89.08</ele>
        <time>2025-01-27T13:03:49.914Z</time>
      </trkpt>
      <trkpt lat="58.73126596212387" lon="16.379097942262888">
        <ele>90.12</ele>
        <time>2025-01-27T13:04:06.235Z</time>
      </trkpt>
      <trkpt lat="58.73103093355894" lon="16.379261976107955">
        <ele>91.0</ele>
        <time>2025-01-27T13:04:22.590Z</time>
      </trkpt>
      <trkpt lat="58.730901097878814" lon="16.3795652333647">
        <ele>91.73</ele>
        <time>2025-01-27T13:04:38.972Z</time>
      </trkpt>
      <trkpt lat="58.73077193275094" lon="16.379866981878877">
        <ele>92.34</ele>
        <time>2025-01-27T13:04:55.381Z</time>
      </trkpt>
      <trkpt lat="58.73065793886781" lon="16.380052976310253">
        <ele>92.82</ele>
        <time>2025-01-27T13:05:11.810Z</time>
      </trkpt>
      <trkpt lat="58.73079095967114" lon="16.380470981821418">
        <ele>93.13</ele>
        <time>2025-01-27T13:05:28.273Z</time>
      </trkpt>
      <trkpt lat="58.73072298243642" lon="16.380973979830742">
        <ele>93.32</ele>
        <time>2025-01-27T13:05:44.772Z</time>
      </trkpt>
      <trkpt lat="58.730562971904874" lon="16.381480917334557">
        <ele>93.43</ele>
        <time>2025-01-27T13:06:01.313Z</time>
      </trkpt>
      <trkpt lat="58.73044294305146" lon="16.381903951987624">
        <ele>93.47</ele>
        <time>2025-01-27T13:06:17.887Z</time>
      </trkpt>
      <trkpt lat="58.73025795444846" lon="16.382295973598957">
        <ele>93.46</ele>
        <time>2025-01-27T13:06:34.498Z</time>
      </trkpt>
      <trkpt lat="58.73031796887517" lon="16.38286594301462">
        <ele>93.23</ele>
        <time>2025-01-27T13:06:51.149Z</time>
      </trkpt>
      <trkpt lat="58.73042592778802" lon="16.383265927433968">
        <ele>92.97</ele>
        <time>2025-01-27T13:07:07.832Z</time>
      </trkpt>
      <trkpt lat="58.730651987716556" lon="16.383567927405238">
        <ele>92.66</ele>
        <time>2025-01-27T13:07:24.551Z</time>
      </trkpt>
      <trkpt lat="58.73076799325645" lon="16.383949974551797">
        <ele>92.33</ele>
        <time>2025-01-27T13:07:41.301Z</time>
      </trkpt>
      <trkpt lat="58.73079498298466" lon="16.384334955364466">
        <ele>91.95</ele>
        <time>2025-01-27T13:07:58.078Z</time>
      </trkpt>
      <trkpt lat="58.730890955775976" lon="16.38464692980051">
        <ele>91.54</ele>
        <time>2025-01-27T13:08:14.880Z</time>
      </trkpt>
      <trkpt lat="58.73087394051254" lon="16.384869972243905">
        <ele>91.09</ele>
        <time>2025-01-27T13:08:31.698Z</time>
      </trkpt>
      <trkpt lat="58.73081493191421" lon="16.385261993855238">
        <ele>90.59</ele>
        <time>2025-01-27T13:08:48.544Z</time>
      </trkpt>
      <trkpt lat="58.730898164212704" lon="16.38555779121816">
        <ele>90.17</ele>
        <time>2025-01-27T13:09:05.414Z</time>
      </trkpt>
      <trkpt lat="58.73098097741604" lon="16.385851996019483">
        <ele>89.73</ele>
        <time>2025-01-27T13:09:22.307Z</time>
      </trkpt>
      <trkpt lat="58.73090595938265" lon="16.38623697683215">
        <ele>89.23</ele>
        <time>2025-01-27T13:09:39.229Z</time>
      </trkpt>
      <trkpt lat="58.730760952457786" lon="16.386495977640152">
        <ele>88.7</ele>
        <time>2025-01-27T13:09:56.177Z</time>
      </trkpt>
      <trkpt lat="58.7306222319603" lon="16.386646265164018">
        <ele>88.2</ele>
        <time>2025-01-27T13:10:13.146Z</time>
      </trkpt>
      <trkpt lat="58.730483930557966" lon="16.38679596595466">
        <ele>87.67</ele>
        <time>2025-01-27T13:10:30.137Z</time>
      </trkpt>
      <trkpt lat="58.730391981080174" lon="16.386778950691223">
        <ele>87.25</ele>
        <time>2025-01-27T13:10:47.140Z</time>
      </trkpt>
      <trkpt lat="58.73033699579537" lon="16.38670493848622">
        <ele>86.89</ele>
        <time>2025-01-27T13:11:04.152Z</time>
      </trkpt>
      <trkpt lat="58.7302559427917" lon="16.38676998205483">
        <ele>86.56</ele>
        <time>2025-01-27T13:11:21.176Z</time>
      </trkpt>
      <trkpt lat="58.73016499914229" lon="16.38689696788788">
        <ele>86.27</ele>
        <time>2025-01-27T13:11:38.215Z</time>
      </trkpt>
      <trkpt lat="58.73002594336867" lon="16.387419998645782">
        <ele>86.08</ele>
        <time>2025-01-27T13:11:55.294Z</time>
      </trkpt>
      <trkpt lat="58.72993793338537" lon="16.3877609744668">
        <ele>85.93</ele>
        <time>2025-01-27T13:12:12.400Z</time>
      </trkpt>
      <trkpt lat="58.72992695309222" lon="16.387848984450102">
        <ele>85.82</ele>
        <time>2025-01-27T13:12:29.512Z</time>
      </trkpt>
      <trkpt lat="58.72993399389088" lon="16.388052999973297">
        <ele>85.79</ele>
        <time>2025-01-27T13:12:46.638Z</time>
      </trkpt>
      <trkpt lat="58.72991890646517" lon="16.388445273041725">
        <ele>85.85</ele>
        <time>2025-01-27T13:13:03.792Z</time>
      </trkpt>
      <trkpt lat="58.72990398667753" lon="16.38883494772017">
        <ele>85.93</ele>
        <time>2025-01-27T13:13:20.973Z</time>
      </trkpt>
      <trkpt lat="58.72977306134999" lon="16.389208948239684">
        <ele>86.07</ele>
        <time>2025-01-27T13:13:38.185Z</time>
      </trkpt>
      <trkpt lat="58.729642974212766" lon="16.389580937102437">
        <ele>86.17</ele>
        <time>2025-01-27T13:13:55.428Z</time>
      </trkpt>
      <trkpt lat="58.72952696867287" lon="16.390141937881708">
        <ele>86.23</ele>
        <time>2025-01-27T13:14:12.713Z</time>
      </trkpt>
      <trkpt lat="58.72950894758105" lon="16.390480985864997">
        <ele>86.29</ele>
        <time>2025-01-27T13:14:30.022Z</time>
      </trkpt>
      <trkpt lat="58.72940870001912" lon="16.39074015431106">
        <ele>86.23</ele>
        <time>2025-01-27T13:14:47.353Z</time>
      </trkpt>
      <trkpt lat="58.72930895537138" lon="16.390997981652617">
        <ele>86.23</ele>
        <time>2025-01-27T13:15:04.707Z</time>
      </trkpt>
      <trkpt lat="58.729262351989746" lon="16.39136058278382">
        <ele>86.32</ele>
        <time>2025-01-27T13:15:22.087Z</time>
      </trkpt>
      <trkpt lat="58.729215916246176" lon="16.391720920801163">
        <ele>86.35</ele>
        <time>2025-01-27T13:15:39.493Z</time>
      </trkpt>
      <trkpt lat="58.729123966768384" lon="16.392287956550717">
        <ele>86.33</ele>
        <time>2025-01-27T13:15:56.940Z</time>
      </trkpt>
      <trkpt lat="58.72918398119509" lon="16.39263396151364">
        <ele>86.35</ele>
        <time>2025-01-27T13:16:14.412Z</time>
      </trkpt>
      <trkpt lat="58.72937995009124" lon="16.392666986212134">
        <ele>86.4</ele>
        <time>2025-01-27T13:16:31.911Z</time>
      </trkpt>
      <trkpt lat="58.72965345159173" lon="16.392910899594426">
        <ele>86.43</ele>
        <time>2025-01-27T13:16:49.450Z</time>
      </trkpt>
      <trkpt lat="58.72992594726384" lon="16.3931539747864">
        <ele>86.45</ele>
        <time>2025-01-27T13:17:07.029Z</time>
      </trkpt>
      <trkpt lat="58.73007891699672" lon="16.393485981971025">
        <ele>86.36</ele>
        <time>2025-01-27T13:17:24.639Z</time>
      </trkpt>
      <trkpt lat="58.730178996920586" lon="16.393638951703906">
        <ele>86.26</ele>
        <time>2025-01-27T13:17:42.266Z</time>
      </trkpt>
      <trkpt lat="58.73026667162776" lon="16.39391672797501">
        <ele>86.07</ele>
        <time>2025-01-27T13:17:59.915Z</time>
      </trkpt>
      <trkpt lat="58.730353927239776" lon="16.394192995503545">
        <ele>85.82</ele>
        <time>2025-01-27T13:18:17.587Z</time>
      </trkpt>
      <trkpt lat="58.73053698800504" lon="16.394509999081492">
        <ele>85.66</ele>
        <time>2025-01-27T13:18:35.292Z</time>
      </trkpt>
      <trkpt lat="58.730674954131246" lon="16.394989946857095">
        <ele>85.41</ele>
        <time>2025-01-27T13:18:53.035Z</time>
      </trkpt>
      <trkpt lat="58.73072298243642" lon="16.395501997321844">
        <ele>85.1</ele>
        <time>2025-01-27T13:19:10.814Z</time>
      </trkpt>
      <trkpt lat="58.730874778702855" lon="16.395679777488112">
        <ele>84.75</ele>
        <time>2025-01-27T13:19:28.617Z</time>
      </trkpt>
      <trkpt lat="58.73102598823607" lon="16.39585697092116">
        <ele>84.38</ele>
        <time>2025-01-27T13:19:46.444Z</time>
      </trkpt>
      <trkpt lat="58.73128096573055" lon="16.395867951214314">
        <ele>84.01</ele>
        <time>2025-01-27T13:20:04.305Z</time>
      </trkpt>
      <trkpt lat="58.73151180334389" lon="16.39584288932383">
        <ele>83.59</ele>
        <time>2025-01-27T13:20:22.197Z</time>
      </trkpt>
      <trkpt lat="58.73174197040498" lon="16.39581799507141">
        <ele>83.08</ele>
        <time>2025-01-27T13:20:40.119Z</time>
      </trkpt>
      <trkpt lat="58.73189091682434" lon="16.39581698924303">
        <ele>82.46</ele>
        <time>2025-01-27T13:20:58.061Z</time>
      </trkpt>
      <trkpt lat="58.7319809384644" lon="16.39570894651115">
        <ele>81.96</ele>
        <time>2025-01-27T13:21:16.018Z</time>
      </trkpt>
      <trkpt lat="58.732141284272075" lon="16.3954318407923">
        <ele>81.48</ele>
        <time>2025-01-27T13:21:34.003Z</time>
      </trkpt>
      <trkpt lat="58.73230095952749" lon="16.395155992358923">
        <ele>81.07</ele>
        <time>2025-01-27T13:21:52.017Z</time>
      </trkpt>
      <trkpt lat="58.7324402667582" lon="16.394985085353255">
        <ele>80.59</ele>
        <time>2025-01-27T13:22:10.053Z</time>
      </trkpt>
      <trkpt lat="58.73257898725569" lon="16.394814932718873">
        <ele>80.16</ele>
        <time>2025-01-27T13:22:28.111Z</time>
      </trkpt>
      <trkpt lat="58.732734974473715" lon="16.394810993224382">
        <ele>79.67</ele>
        <time>2025-01-27T13:22:46.190Z</time>
      </trkpt>
      <trkpt lat="58.732882998883724" lon="16.39504292048514">
        <ele>79.23</ele>
        <time>2025-01-27T13:23:04.294Z</time>
      </trkpt>
      <trkpt lat="58.73317494057119" lon="16.39525699429214">
        <ele>79.03</ele>
        <time>2025-01-27T13:23:22.440Z</time>
      </trkpt>
      <trkpt lat="58.733315924182534" lon="16.395317930728197">
        <ele>78.97</ele>
        <time>2025-01-27T13:23:40.606Z</time>
      </trkpt>
      <trkpt lat="58.73345296829939" lon="16.395652955397964">
        <ele>79.03</ele>
        <time>2025-01-27T13:23:58.801Z</time>
      </trkpt>
      <trkpt lat="58.73336168937385" lon="16.396015556529164">
        <ele>79.14</ele>
        <time>2025-01-27T13:24:17.024Z</time>
      </trkpt>
      <trkpt lat="58.733270997181535" lon="16.39637597836554">
        <ele>79.35</ele>
        <time>2025-01-27T13:24:35.275Z</time>
      </trkpt>
      <trkpt lat="58.733157590031624" lon="16.39692365191877">
        <ele>79.67</ele>
        <time>2025-01-27T13:24:53.567Z</time>
      </trkpt>
      <trkpt lat="58.733044937253" lon="16.39746797271073">
        <ele>80.06</ele>
        <time>2025-01-27T13:25:11.900Z</time>
      </trkpt>
      <trkpt lat="58.73287696391344" lon="16.3979459926486">
        <ele>80.62</ele>
        <time>2025-01-27T13:25:30.273Z</time>
      </trkpt>
      <trkpt lat="58.73295893892646" lon="16.39824195764959">
        <ele>81.32</ele>
        <time>2025-01-27T13:25:48.669Z</time>
      </trkpt>
      <trkpt lat="58.73301895335317" lon="16.398496935144067">
        <ele>82.12</ele>
        <time>2025-01-27T13:26:07.085Z</time>
      </trkpt>
      <trkpt lat="58.73300897888839" lon="16.398678990080953">
        <ele>82.9</ele>
        <time>2025-01-27T13:26:25.513Z</time>
      </trkpt>
      <trkpt lat="58.73289791867137" lon="16.398915946483612">
        <ele>83.76</ele>
        <time>2025-01-27T13:26:43.963Z</time>
      </trkpt>
      <trkpt lat="58.73289892449975" lon="16.399247953668237">
        <ele>84.65</ele>
        <time>2025-01-27T13:27:02.437Z</time>
      </trkpt>
      <trkpt lat="58.73298240825534" lon="16.399755897000432">
        <ele>85.49</ele>
        <time>2025-01-27T13:27:20.948Z</time>
      </trkpt>
      <trkpt lat="58.73298249207437" lon="16.399756148457527">
        <ele>86.12</ele>
        <time>2025-01-27T13:27:39.459Z</time>
      </trkpt>
      <trkpt lat="58.732982743531466" lon="16.399757489562035">
        <ele>86.68</ele>
        <time>2025-01-27T13:27:57.970Z</time>
      </trkpt>
      <trkpt lat="58.732982659712434" lon="16.39975673519075">
        <ele>87.18</ele>
        <time>2025-01-27T13:28:16.481Z</time>
      </trkpt>
      <trkpt lat="58.732982743531466" lon="16.39975681900978">
        <ele>87.6</ele>
        <time>2025-01-27T13:28:34.992Z</time>
      </trkpt>
      <trkpt lat="58.7329828273505" lon="16.399757154285908">
        <ele>87.93</ele>
        <time>2025-01-27T13:28:53.503Z</time>
      </trkpt>
      <trkpt lat="58.73298341408372" lon="16.399760339409113">
        <ele>88.16</ele>
        <time>2025-01-27T13:29:12.014Z</time>
      </trkpt>
      <trkpt lat="58.73298358172178" lon="16.399760926142335">
        <ele>88.29</ele>
        <time>2025-01-27T13:29:30.525Z</time>
      </trkpt>
      <trkpt lat="58.73306815512478" lon="16.4002738147974">
        <ele>88.33</ele>
        <time>2025-01-27T13:29:49.073Z</time>
      </trkpt>
      <trkpt lat="58.7331519741565" lon="16.40078192576766">
        <ele>88.24</ele>
        <time>2025-01-27T13:30:07.658Z</time>
      </trkpt>
      <trkpt lat="58.73319656588137" lon="16.40108342282474">
        <ele>88.0</ele>
        <time>2025-01-27T13:30:26.265Z</time>
      </trkpt>
      <trkpt lat="58.73324098996818" lon="16.40138299204409">
        <ele>87.63</ele>
        <time>2025-01-27T13:30:44.894Z</time>
      </trkpt>
      <trkpt lat="58.733184998854995" lon="16.40179093927145">
        <ele>87.11</ele>
        <time>2025-01-27T13:31:03.552Z</time>
      </trkpt>
      <trkpt lat="58.733017947524786" lon="16.40209092758596">
        <ele>86.52</ele>
        <time>2025-01-27T13:31:22.241Z</time>
      </trkpt>
      <trkpt lat="58.7329619564116" lon="16.40243492089212">
        <ele>85.78</ele>
        <time>2025-01-27T13:31:40.955Z</time>
      </trkpt>
      <trkpt lat="58.73300696723163" lon="16.40292794443667">
        <ele>84.98</ele>
        <time>2025-01-27T13:31:59.704Z</time>
      </trkpt>
      <trkpt lat="58.73317393474281" lon="16.40307798050344">
        <ele>84.19</ele>
        <time>2025-01-27T13:32:18.477Z</time>
      </trkpt>
      <trkpt lat="58.73324199579656" lon="16.403194991871715">
        <ele>83.31</ele>
        <time>2025-01-27T13:32:37.262Z</time>
      </trkpt>
      <trkpt lat="58.733228920027614" lon="16.4033389929682">
        <ele>82.41</ele>
        <time>2025-01-27T13:32:56.058Z</time>
      </trkpt>
      <trkpt lat="58.73329698108137" lon="16.40367896296084">
        <ele>81.41</ele>
        <time>2025-01-27T13:33:14.879Z</time>
      </trkpt>
      <trkpt lat="58.733441988006234" lon="16.40411297790706">
        <ele>80.35</ele>
        <time>2025-01-27T13:33:33.736Z</time>
      </trkpt>
      <trkpt lat="58.733526980504394" lon="16.404554955661297">
        <ele>79.36</ele>
        <time>2025-01-27T13:33:52.626Z</time>
      </trkpt>
      <trkpt lat="58.733552964404225" lon="16.40507396310568">
        <ele>78.38</ele>
        <time>2025-01-27T13:34:11.552Z</time>
      </trkpt>
      <trkpt lat="58.73351784422994" lon="16.405387446284294">
        <ele>77.43</ele>
        <time>2025-01-27T13:34:30.500Z</time>
      </trkpt>
      <trkpt lat="58.73348297551274" lon="16.40569891780615">
        <ele>76.42</ele>
        <time>2025-01-27T13:34:49.470Z</time>
      </trkpt>
      <trkpt lat="58.733485992997885" lon="16.405931934714317">
        <ele>75.44</ele>
        <time>2025-01-27T13:35:08.456Z</time>
      </trkpt>
      <trkpt lat="58.73351591639221" lon="16.40604794025421">
        <ele>74.51</ele>
        <time>2025-01-27T13:35:27.451Z</time>
      </trkpt>
      <trkpt lat="58.73354491777718" lon="16.406197976320982">
        <ele>73.62</ele>
        <time>2025-01-27T13:35:46.458Z</time>
      </trkpt>
      <trkpt lat="58.73351692222059" lon="16.4064749982208">
        <ele>72.73</ele>
        <time>2025-01-27T13:36:05.484Z</time>
      </trkpt>
      <trkpt lat="58.73339110985398" lon="16.406788816675544">
        <ele>71.9</ele>
        <time>2025-01-27T13:36:24.538Z</time>
      </trkpt>
      <trkpt lat="58.73326596803963" lon="16.407100958749652">
        <ele>71.17</ele>
        <time>2025-01-27T13:36:43.619Z</time>
      </trkpt>
      <trkpt lat="58.73320092447102" lon="16.407362977042794">
        <ele>70.52</ele>
        <time>2025-01-27T13:37:02.720Z</time>
      </trkpt>
      <trkpt lat="58.73295793309808" lon="16.40744294039905">
        <ele>69.95</ele>
        <time>2025-01-27T13:37:21.854Z</time>
      </trkpt>
      <trkpt lat="58.73266599141061" lon="16.40754796564579">
        <ele>69.46</ele>
        <time>2025-01-27T13:37:41.028Z</time>
      </trkpt>
      <trkpt lat="58.73237547464669" lon="16.40772725455463">
        <ele>68.99</ele>
        <time>2025-01-27T13:38:00.243Z</time>
      </trkpt>
      <trkpt lat="58.73208596371114" lon="16.407905956730247">
        <ele>68.61</ele>
        <time>2025-01-27T13:38:19.498Z</time>
      </trkpt>
      <trkpt lat="58.73199594207108" lon="16.407943926751614">
        <ele>68.37</ele>
        <time>2025-01-27T13:38:38.766Z</time>
      </trkpt>
      <trkpt lat="58.732026955112815" lon="16.408327985554934">
        <ele>68.3</ele>
        <time>2025-01-27T13:38:58.061Z</time>
      </trkpt>
      <trkpt lat="58.73204195871949" lon="16.408672984689474">
        <ele>68.25</ele>
        <time>2025-01-27T13:39:17.380Z</time>
      </trkpt>
      <trkpt lat="58.73203399591148" lon="16.409040950238705">
        <ele>68.33</ele>
        <time>2025-01-27T13:39:36.724Z</time>
      </trkpt>
      <trkpt lat="58.732008934020996" lon="16.409279918298125">
        <ele>68.44</ele>
        <time>2025-01-27T13:39:56.085Z</time>
      </trkpt>
      <trkpt lat="58.73196895234287" lon="16.409598933532834">
        <ele>68.55</ele>
        <time>2025-01-27T13:40:15.469Z</time>
      </trkpt>
      <trkpt lat="58.73193492181599" lon="16.409775959327817">
        <ele>68.73</ele>
        <time>2025-01-27T13:40:34.866Z</time>
      </trkpt>
      <trkpt lat="58.731809947639704" lon="16.410186924040318">
        <ele>68.98</ele>
        <time>2025-01-27T13:40:54.296Z</time>
      </trkpt>
      <trkpt lat="58.731726966798306" lon="16.410392951220274">
        <ele>69.3</ele>
        <time>2025-01-27T13:41:13.744Z</time>
      </trkpt>
      <trkpt lat="58.731619929894805" lon="16.410611970350146">
        <ele>69.65</ele>
        <time>2025-01-27T13:41:33.213Z</time>
      </trkpt>
      <trkpt lat="58.7314819637686" lon="16.41083694063127">
        <ele>70.07</ele>
        <time>2025-01-27T13:41:52.707Z</time>
      </trkpt>
      <trkpt lat="58.73130493797362" lon="16.411101976409554">
        <ele>70.57</ele>
        <time>2025-01-27T13:42:12.231Z</time>
      </trkpt>
      <trkpt lat="58.73119295574725" lon="16.4112429600209">
        <ele>71.01</ele>
        <time>2025-01-27T13:42:31.772Z</time>
      </trkpt>
      <trkpt lat="58.730996986851096" lon="16.41144094057381">
        <ele>71.49</ele>
        <time>2025-01-27T13:42:51.343Z</time>
      </trkpt>
      <trkpt lat="58.73084468767047" lon="16.411547139286995">
        <ele>71.92</ele>
        <time>2025-01-27T13:43:10.936Z</time>
      </trkpt>
      <trkpt lat="58.730692975223064" lon="16.41165291890502">
        <ele>72.26</ele>
        <time>2025-01-27T13:43:30.550Z</time>
      </trkpt>
      <trkpt lat="58.73053497634828" lon="16.411732966080308">
        <ele>72.6</ele>
        <time>2025-01-27T13:43:50.186Z</time>
      </trkpt>
      <trkpt lat="58.73053011484444" lon="16.411734307184815">
        <ele>72.91</ele>
        <time>2025-01-27T13:44:09.823Z</time>
      </trkpt>
      <trkpt lat="58.73041193000972" lon="16.411767918616533">
        <ele>73.18</ele>
        <time>2025-01-27T13:44:29.476Z</time>
      </trkpt>
      <trkpt lat="58.73014798387885" lon="16.41182198189199">
        <ele>73.4</ele>
        <time>2025-01-27T13:44:49.164Z</time>
      </trkpt>
      <trkpt lat="58.729976238682866" lon="16.411813935264945">
        <ele>73.59</ele>
        <time>2025-01-27T13:45:08.875Z</time>
      </trkpt>
      <trkpt lat="58.72980499640107" lon="16.411805972456932">
        <ele>73.72</ele>
        <time>2025-01-27T13:45:28.609Z</time>
      </trkpt>
      <trkpt lat="58.729531075805426" lon="16.41170480288565">
        <ele>73.79</ele>
        <time>2025-01-27T13:45:48.380Z</time>
      </trkpt>
      <trkpt lat="58.729345919564366" lon="16.411636406555772">
        <ele>73.78</ele>
        <time>2025-01-27T13:46:08.177Z</time>
      </trkpt>
      <trkpt lat="58.7292579934001" lon="16.411603968590498">
        <ele>73.72</ele>
        <time>2025-01-27T13:46:27.985Z</time>
      </trkpt>
      <trkpt lat="58.72925195842981" lon="16.411679992452264">
        <ele>73.57</ele>
        <time>2025-01-27T13:46:47.799Z</time>
      </trkpt>
      <trkpt lat="58.72906722128391" lon="16.411638418212533">
        <ele>73.46</ele>
        <time>2025-01-27T13:47:07.638Z</time>
      </trkpt>
      <trkpt lat="58.7288829870522" lon="16.411596927791834">
        <ele>73.29</ele>
        <time>2025-01-27T13:47:27.501Z</time>
      </trkpt>
      <trkpt lat="58.72858148999512" lon="16.411494836211205">
        <ele>73.02</ele>
        <time>2025-01-27T13:47:47.405Z</time>
      </trkpt>
      <trkpt lat="58.72828099876642" lon="16.41139299608767">
        <ele>72.63</ele>
        <time>2025-01-27T13:48:07.350Z</time>
      </trkpt>
      <trkpt lat="58.728227941319346" lon="16.411442952230573">
        <ele>72.24</ele>
        <time>2025-01-27T13:48:27.303Z</time>
      </trkpt>
      <trkpt lat="58.728091986849904" lon="16.41162794083357">
        <ele>71.77</ele>
        <time>2025-01-27T13:48:47.278Z</time>
      </trkpt>
      <trkpt lat="58.72791605070233" lon="16.41192113980651">
        <ele>71.28</ele>
        <time>2025-01-27T13:49:07.284Z</time>
      </trkpt>
      <trkpt lat="58.72774095274508" lon="16.412212997674942">
        <ele>70.76</ele>
        <time>2025-01-27T13:49:27.321Z</time>
      </trkpt>
      <trkpt lat="58.72763299383223" lon="16.412417935207486">
        <ele>70.21</ele>
        <time>2025-01-27T13:49:47.379Z</time>
      </trkpt>
      <trkpt lat="58.72760122641921" lon="16.412463197484612">
        <ele>69.7</ele>
        <time>2025-01-27T13:50:07.442Z</time>
      </trkpt>
      <trkpt lat="58.72749569825828" lon="16.412613904103637">
        <ele>69.15</ele>
        <time>2025-01-27T13:50:27.523Z</time>
      </trkpt>
      <trkpt lat="58.72735898941755" lon="16.41280895099044">
        <ele>68.59</ele>
        <time>2025-01-27T13:50:47.626Z</time>
      </trkpt>
      <trkpt lat="58.727303920313716" lon="16.412887992337346">
        <ele>68.08</ele>
        <time>2025-01-27T13:51:07.739Z</time>
      </trkpt>
      <trkpt lat="58.72710996307433" lon="16.413141964003444">
        <ele>67.66</ele>
        <time>2025-01-27T13:51:27.883Z</time>
      </trkpt>
      <trkpt lat="58.72704994864762" lon="16.41332594677806">
        <ele>67.22</ele>
        <time>2025-01-27T13:51:48.042Z</time>
      </trkpt>
      <trkpt lat="58.727018935605884" lon="16.413663988932967">
        <ele>66.84</ele>
        <time>2025-01-27T13:52:08.225Z</time>
      </trkpt>
      <trkpt lat="58.727021450176835" lon="16.414000522345304">
        <ele>66.34</ele>
        <time>2025-01-27T13:52:28.431Z</time>
      </trkpt>
      <trkpt lat="58.72702396474779" lon="16.41433496028185">
        <ele>65.83</ele>
        <time>2025-01-27T13:52:48.660Z</time>
      </trkpt>
      <trkpt lat="58.72679798863828" lon="16.414733938872814">
        <ele>65.44</ele>
        <time>2025-01-27T13:53:08.930Z</time>
      </trkpt>
      <trkpt lat="58.72660294175148" lon="16.41515697352588">
        <ele>65.1</ele>
        <time>2025-01-27T13:53:29.240Z</time>
      </trkpt>
      <trkpt lat="58.726549968123436" lon="16.415267949923873">
        <ele>64.88</ele>
        <time>2025-01-27T13:53:49.560Z</time>
      </trkpt>
      <trkpt lat="58.726461958140135" lon="16.41548093408346">
        <ele>64.74</ele>
        <time>2025-01-27T13:54:09.899Z</time>
      </trkpt>
      <trkpt lat="58.72645298950374" lon="16.41560398042202">
        <ele>64.53</ele>
        <time>2025-01-27T13:54:30.247Z</time>
      </trkpt>
      <trkpt lat="58.72653597034514" lon="16.41582492738962">
        <ele>64.25</ele>
        <time>2025-01-27T13:54:50.614Z</time>
      </trkpt>
      <trkpt lat="58.72648794203997" lon="16.416409984230995">
        <ele>63.89</ele>
        <time>2025-01-27T13:55:11.022Z</time>
      </trkpt>
      <trkpt lat="58.72639096342027" lon="16.416906947270036">
        <ele>63.89</ele>
        <time>2025-01-27T13:55:31.467Z</time>
      </trkpt>
      <trkpt lat="58.72623095288873" lon="16.417229985818267">
        <ele>63.88</ele>
        <time>2025-01-27T13:55:51.943Z</time>
      </trkpt>
      <trkpt lat="58.726076977327466" lon="16.417479934170842">
        <ele>64.11</ele>
        <time>2025-01-27T13:56:12.446Z</time>
      </trkpt>
      <trkpt lat="58.725775983184576" lon="16.417634999379516">
        <ele>64.43</ele>
        <time>2025-01-27T13:56:32.990Z</time>
      </trkpt>
      <trkpt lat="58.725534584373236" lon="16.41770306043327">
        <ele>64.61</ele>
        <time>2025-01-27T13:56:53.567Z</time>
      </trkpt>
      <trkpt lat="58.72529393993318" lon="16.417770953848958">
        <ele>64.82</ele>
        <time>2025-01-27T13:57:14.177Z</time>
      </trkpt>
      <trkpt lat="58.72507492080331" lon="16.417760979384184">
        <ele>65.01</ele>
        <time>2025-01-27T13:57:34.816Z</time>
      </trkpt>
      <trkpt lat="58.72496394440532" lon="16.41755696386099">
        <ele>65.35</ele>
        <time>2025-01-27T13:57:55.475Z</time>
      </trkpt>
      <trkpt lat="58.72473394498229" lon="16.417529974132776">
        <ele>65.63</ele>
        <time>2025-01-27T13:58:16.165Z</time>
      </trkpt>
      <trkpt lat="58.724655993282795" lon="16.417467948049307">
        <ele>66.03</ele>
        <time>2025-01-27T13:58:36.866Z</time>
      </trkpt>
      <trkpt lat="58.72465297579765" lon="16.41749694943428">
        <ele>66.49</ele>
        <time>2025-01-27T13:58:57.570Z</time>
      </trkpt>
      <trkpt lat="58.724465975537896" lon="16.417483957484365">
        <ele>67.0</ele>
        <time>2025-01-27T13:59:18.299Z</time>
      </trkpt>
      <trkpt lat="58.72449757531285" lon="16.41709822230041">
        <ele>67.59</ele>
        <time>2025-01-27T13:59:39.055Z</time>
      </trkpt>
      <trkpt lat="58.724528923630714" lon="16.416714917868376">
        <ele>68.29</ele>
        <time>2025-01-27T13:59:59.838Z</time>
      </trkpt>
      <trkpt lat="58.72428693808615" lon="16.416708966717124">
        <ele>68.92</ele>
        <time>2025-01-27T14:00:20.653Z</time>
      </trkpt>
      <trkpt lat="58.72399499639869" lon="16.416841987520456">
        <ele>69.76</ele>
        <time>2025-01-27T14:00:41.508Z</time>
      </trkpt>
      <trkpt lat="58.72380212880671" lon="16.41697316430509">
        <ele>70.63</ele>
        <time>2025-01-27T14:01:02.390Z</time>
      </trkpt>
      <trkpt lat="58.72360993176699" lon="16.417103921994567">
        <ele>71.58</ele>
        <time>2025-01-27T14:01:23.300Z</time>
      </trkpt>
      <trkpt lat="58.723348919302225" lon="16.417264938354492">
        <ele>72.58</ele>
        <time>2025-01-27T14:01:44.246Z</time>
      </trkpt>
      <trkpt lat="58.72311498038471" lon="16.417486974969506">
        <ele>73.45</ele>
        <time>2025-01-27T14:02:05.227Z</time>
      </trkpt>
      <trkpt lat="58.72299394570291" lon="16.417718986049294">
        <ele>74.32</ele>
        <time>2025-01-27T14:02:26.231Z</time>
      </trkpt>
      <trkpt lat="58.72290895320475" lon="16.41807295382023">
        <ele>75.14</ele>
        <time>2025-01-27T14:02:47.262Z</time>
      </trkpt>
      <trkpt lat="58.72284793294966" lon="16.418286943808198">
        <ele>75.91</ele>
        <time>2025-01-27T14:03:08.310Z</time>
      </trkpt>
      <trkpt lat="58.72273494489491" lon="16.41853094100952">
        <ele>76.7</ele>
        <time>2025-01-27T14:03:29.381Z</time>
      </trkpt>
      <trkpt lat="58.72268792241812" lon="16.418630937114358">
        <ele>77.48</ele>
        <time>2025-01-27T14:03:50.461Z</time>
      </trkpt>
      <trkpt lat="58.72250293381512" lon="16.418928997591138">
        <ele>78.27</ele>
        <time>2025-01-27T14:04:11.573Z</time>
      </trkpt>
      <trkpt lat="58.72234359383583" lon="16.419211300089955">
        <ele>79.11</ele>
        <time>2025-01-27T14:04:32.714Z</time>
      </trkpt>
      <trkpt lat="58.72218425385654" lon="16.419493602588773">
        <ele>80.05</ele>
        <time>2025-01-27T14:04:53.884Z</time>
      </trkpt>
      <trkpt lat="58.72202591970563" lon="16.41977397724986">
        <ele>80.92</ele>
        <time>2025-01-27T14:05:15.083Z</time>
      </trkpt>
      <trkpt lat="58.72196892276406" lon="16.419719997793436">
        <ele>81.78</ele>
        <time>2025-01-27T14:05:36.291Z</time>
      </trkpt>
      <trkpt lat="58.72179692611098" lon="16.419485975056887">
        <ele>82.68</ele>
        <time>2025-01-27T14:05:57.527Z</time>
      </trkpt>
      <trkpt lat="58.72159793972969" lon="16.41946895979345">
        <ele>83.62</ele>
        <time>2025-01-27T14:06:18.789Z</time>
      </trkpt>
      <trkpt lat="58.721388978883624" lon="16.41953995451331">
        <ele>84.56</ele>
        <time>2025-01-27T14:06:40.080Z</time>
      </trkpt>
      <trkpt lat="58.721155961975455" lon="16.41964397393167">
        <ele>85.51</ele>
        <time>2025-01-27T14:07:01.403Z</time>
      </trkpt>
      <trkpt lat="58.72106493450701" lon="16.41968496143818">
        <ele>86.29</ele>
        <time>2025-01-27T14:07:22.738Z</time>
      </trkpt>
      <trkpt lat="58.72083812020719" lon="16.419801134616137">
        <ele>87.04</ele>
        <time>2025-01-27T14:07:44.105Z</time>
      </trkpt>
      <trkpt lat="58.72061197645962" lon="16.419916972517967">
        <ele>87.69</ele>
        <time>2025-01-27T14:08:05.503Z</time>
      </trkpt>
      <trkpt lat="58.72047057375312" lon="16.41959309577942">
        <ele>88.39</ele>
        <time>2025-01-27T14:08:26.930Z</time>
      </trkpt>
      <trkpt lat="58.7203299254179" lon="16.419270979240537">
        <ele>89.02</ele>
        <time>2025-01-27T14:08:48.387Z</time>
      </trkpt>
      <trkpt lat="58.720166981220245" lon="16.418898990377784">
        <ele>89.62</ele>
        <time>2025-01-27T14:09:09.877Z</time>
      </trkpt>
      <trkpt lat="58.72003513388336" lon="16.418688520789146">
        <ele>90.17</ele>
        <time>2025-01-27T14:09:31.390Z</time>
      </trkpt>
      <trkpt lat="58.71990395709872" lon="16.418478973209858">
        <ele>90.68</ele>
        <time>2025-01-27T14:09:52.926Z</time>
      </trkpt>
      <trkpt lat="58.71976599097252" lon="16.418021991848946">
        <ele>91.12</ele>
        <time>2025-01-27T14:10:14.499Z</time>
      </trkpt>
      <trkpt lat="58.719822987914085" lon="16.41767095774412">
        <ele>91.53</ele>
        <time>2025-01-27T14:10:36.097Z</time>
      </trkpt>
      <trkpt lat="58.71968594379723" lon="16.417168965563178">
        <ele>91.83</ele>
        <time>2025-01-27T14:10:57.735Z</time>
      </trkpt>
      <trkpt lat="58.71962525881827" lon="16.416882053017616">
        <ele>92.05</ele>
        <time>2025-01-27T14:11:19.394Z</time>
      </trkpt>
      <trkpt lat="58.719564992934465" lon="16.416596984490752">
        <ele>92.24</ele>
        <time>2025-01-27T14:11:41.075Z</time>
      </trkpt>
      <trkpt lat="58.71953087858856" lon="16.416115360334516">
        <ele>92.38</ele>
        <time>2025-01-27T14:12:02.790Z</time>
      </trkpt>
      <trkpt lat="58.71949676424265" lon="16.41563381999731">
        <ele>92.52</ele>
        <time>2025-01-27T14:12:24.538Z</time>
      </trkpt>
      <trkpt lat="58.71946298517287" lon="16.41515697352588">
        <ele>92.66</ele>
        <time>2025-01-27T14:12:46.320Z</time>
      </trkpt>
      <trkpt lat="58.71942291967571" lon="16.41478397883475">
        <ele>92.7</ele>
        <time>2025-01-27T14:13:08.128Z</time>
      </trkpt>
      <trkpt lat="58.71951092965901" lon="16.41440092585981">
        <ele>93.0</ele>
        <time>2025-01-27T14:13:29.965Z</time>
      </trkpt>
      <trkpt lat="58.71956222690642" lon="16.414314340800047">
        <ele>93.18</ele>
        <time>2025-01-27T14:13:51.812Z</time>
      </trkpt>
      <trkpt lat="58.719691978767514" lon="16.41409599222243">
        <ele>93.61</ele>
        <time>2025-01-27T14:14:13.682Z</time>
      </trkpt>
      <trkpt lat="58.71991083025932" lon="16.413935646414757">
        <ele>94.09</ele>
        <time>2025-01-27T14:14:35.583Z</time>
      </trkpt>
      <trkpt lat="58.72012892737985" lon="16.41377597115934">
        <ele>94.32</ele>
        <time>2025-01-27T14:14:57.515Z</time>
      </trkpt>
      <trkpt lat="58.72030293568969" lon="16.413427954539657">
        <ele>94.47</ele>
        <time>2025-01-27T14:15:19.481Z</time>
      </trkpt>
      <trkpt lat="58.72054492123425" lon="16.413193931803107">
        <ele>94.69</ele>
        <time>2025-01-27T14:15:41.483Z</time>
      </trkpt>
      <trkpt lat="58.72068163007498" lon="16.412944486364722">
        <ele>95.12</ele>
        <time>2025-01-27T14:16:03.510Z</time>
      </trkpt>
      <trkpt lat="58.72070074081421" lon="16.412909030914307">
        <ele>95.19</ele>
        <time>2025-01-27T14:16:25.541Z</time>
      </trkpt>
      <trkpt lat="58.7207651976496" lon="16.41286611557007">
        <ele>95.2</ele>
        <time>2025-01-27T14:16:47.581Z</time>
      </trkpt>
      <trkpt lat="58.7209153175354" lon="16.412780284881592">
        <ele>95.11</ele>
        <time>2025-01-27T14:17:09.642Z</time>
      </trkpt>
      <trkpt lat="58.721044063568115" lon="16.41232967376709">
        <ele>94.69</ele>
        <time>2025-01-27T14:17:31.738Z</time>
      </trkpt>
      <trkpt lat="58.721033250913024" lon="16.41200671903789">
        <ele>94.07</ele>
        <time>2025-01-27T14:17:53.857Z</time>
      </trkpt>
      <trkpt lat="58.721022605895996" lon="16.411685943603516">
        <ele>93.43</ele>
        <time>2025-01-27T14:18:15.998Z</time>
      </trkpt>
      <trkpt lat="58.72095823287964" lon="16.411192417144775">
        <ele>92.56</ele>
        <time>2025-01-27T14:18:38.175Z</time>
      </trkpt>
      <trkpt lat="58.72088287957013" lon="16.410901816561818">
        <ele>91.82</ele>
        <time>2025-01-27T14:19:00.374Z</time>
      </trkpt>
      <trkpt lat="58.72081951238215" lon="16.410657484084368">
        <ele>91.24</ele>
        <time>2025-01-27T14:19:22.592Z</time>
      </trkpt>
      <trkpt lat="58.720808029174805" lon="16.41061305999756">
        <ele>90.87</ele>
        <time>2025-01-27T14:19:44.814Z</time>
      </trkpt>
      <trkpt lat="58.72081037610769" lon="16.410583471879363">
        <ele>90.55</ele>
        <time>2025-01-27T14:20:07.038Z</time>
      </trkpt>
    </trkseg>
  </trk>
</gpx>
